Observation data for Palo Duro Canyon State Park Rim on 05/16/2018      Previous  Date  Next       Current Mesonet Observations  Soil Data  Daily Summary Page  Observations in Plain Language
KPD1 160500Z 35005KT 17/10 A3005 RMK A01 T01720104  RH  064%=      5-min Rain = 0
KPD1 160501Z 36005KT 17/10 A3005 RMK A01 T01720104  RH  064%=      5-min Rain = 0
KPD1 160502Z 36006KT 17/10 A3005 RMK A01 T01710104  RH  064%=      5-min Rain = 0
KPD1 160503Z 35006KT 17/10 A3005 RMK A01 T01710103  RH  064%=      5-min Rain = 0
KPD1 160504Z 36005KT 17/10 A3005 RMK A01 T01710103  RH  064%=      5-min Rain = 0
KPD1 160505Z 36006KT 17/10 A3005 RMK A01 T01710103  RH  064%=      5-min Rain = 0
KPD1 160506Z 35006KT 17/10 A3005 RMK A01 T01710103  RH  064%=      5-min Rain = 0
KPD1 160507Z 36005KT 17/10 A3005 RMK A01 T01710103  RH  064%=      5-min Rain = 0
KPD1 160508Z 35004KT 17/10 A3005 RMK A01 T01700103  RH  064%=      5-min Rain = 0
KPD1 160509Z 36004KT 17/10 A3005 RMK A01 T01700103  RH  065%=      5-min Rain = 0
KPD1 160510Z 34005KT 17/10 A3006 RMK A01 T01700103  RH  065%=      5-min Rain = 0
KPD1 160511Z 32004KT 17/10 A3006 RMK A01 T01690102  RH  065%=      5-min Rain = 0
KPD1 160512Z 30003KT 17/10 A3006 RMK A01 T01690102  RH  065%=      5-min Rain = 0
KPD1 160513Z 27003KT 17/10 A3006 RMK A01 T01680102  RH  065%=      5-min Rain = 0
KPD1 160514Z 27004KT 17/10 A3006 RMK A01 T01670103  RH  066%=      5-min Rain = 0
KPD1 160515Z 27004KT 16/10 A3006 RMK A01 T01640104  RH  067%=      5-min Rain = 0
KPD1 160516Z 29004KT 16/10 A3006 RMK A01 T01620104  RH  068%=      5-min Rain = 0
KPD1 160517Z 30004KT 16/11 A3006 RMK A01 T01600105  RH  070%=      5-min Rain = 0
KPD1 160518Z 31004KT 16/11 A3006 RMK A01 T01590106  RH  070%=      5-min Rain = 0
KPD1 160519Z 31004KT 16/11 A3006 RMK A01 T01580106  RH  071%=      5-min Rain = 0
KPD1 160520Z 32005KT 16/11 A3006 RMK A01 T01580106  RH  071%=      5-min Rain = 0
KPD1 160521Z 32005KT 16/11 A3006 RMK A01 T01570106  RH  072%=      5-min Rain = 0
KPD1 160522Z 32006KT 16/11 A3005 RMK A01 T01570106  RH  072%=      5-min Rain = 0
KPD1 160523Z 33005KT 16/11 A3005 RMK A01 T01560106  RH  072%=      5-min Rain = 0
KPD1 160524Z 32005KT 16/11 A3005 RMK A01 T01560106  RH  072%=      5-min Rain = 0
KPD1 160525Z 32005KT 16/11 A3005 RMK A01 T01560106  RH  072%=      5-min Rain = 0
KPD1 160526Z 32005KT 16/11 A3005 RMK A01 T01560106  RH  072%=      5-min Rain = 0
KPD1 160527Z 32005KT 16/11 A3005 RMK A01 T01560106  RH  072%=      5-min Rain = 0
KPD1 160528Z 32005KT 16/11 A3005 RMK A01 T01560106  RH  072%=      5-min Rain = 0
KPD1 160529Z 32005KT 16/11 A3005 RMK A01 T01560106  RH  072%=      5-min Rain = 0
KPD1 160530Z 32005KT 16/11 A3005 RMK A01 T01560106  RH  072%=      5-min Rain = 0
KPD1 160531Z 32006KT 16/11 A3005 RMK A01 T01560105  RH  072%=      5-min Rain = 0
KPD1 160532Z 33006KT 16/11 A3005 RMK A01 T01560105  RH  071%=      5-min Rain = 0
KPD1 160533Z 33006KT 16/10 A3005 RMK A01 T01560104  RH  071%=      5-min Rain = 0
KPD1 160534Z 33006KT 16/10 A3005 RMK A01 T01570104  RH  071%=      5-min Rain = 0
KPD1 160535Z 34007KT 16/10 A3005 RMK A01 T01570104  RH  070%=      5-min Rain = 0
KPD1 160536Z 34007KT 16/10 A3005 RMK A01 T01580103  RH  070%=      5-min Rain = 0
KPD1 160537Z 33007KT 16/10 A3005 RMK A01 T01590103  RH  069%=      5-min Rain = 0
KPD1 160538Z 33007KT 16/10 A3005 RMK A01 T01600103  RH  069%=      5-min Rain = 0
KPD1 160539Z 32006KT 16/10 A3005 RMK A01 T01600102  RH  068%=      5-min Rain = 0
KPD1 160540Z 32007KT 16/10 A3005 RMK A01 T01620103  RH  068%=      5-min Rain = 0
KPD1 160541Z 32006KT 16/10 A3005 RMK A01 T01620103  RH  068%=      5-min Rain = 0
KPD1 160542Z 33006KT 16/10 A3005 RMK A01 T01620103  RH  068%=      5-min Rain = 0
KPD1 160543Z 33007KT 16/10 A3005 RMK A01 T01630103  RH  068%=      5-min Rain = 0
KPD1 160544Z 33007KT 16/10 A3005 RMK A01 T01630103  RH  067%=      5-min Rain = 0
KPD1 160545Z 33007KT 16/10 A3006 RMK A01 T01630103  RH  067%=      5-min Rain = 0
KPD1 160546Z 33006KT 16/10 A3006 RMK A01 T01630103  RH  067%=      5-min Rain = 0
KPD1 160547Z 33007KT 16/10 A3006 RMK A01 T01640103  RH  067%=      5-min Rain = 0
KPD1 160548Z 33007KT 16/10 A3006 RMK A01 T01640103  RH  067%=      5-min Rain = 0
KPD1 160549Z 33007KT 16/10 A3006 RMK A01 T01640103  RH  067%=      5-min Rain = 0
KPD1 160550Z 34007KT 16/10 A3006 RMK A01 T01640103  RH  067%=      5-min Rain = 0
KPD1 160551Z 34007KT 16/10 A3005 RMK A01 T01630103  RH  067%=      5-min Rain = 0
KPD1 160552Z 34007KT 16/10 A3005 RMK A01 T01630103  RH  067%=      5-min Rain = 0
KPD1 160553Z 34007KT 16/10 A3005 RMK A01 T01640102  RH  067%=      5-min Rain = 0
KPD1 160554Z 34007KT 16/10 A3005 RMK A01 T01630102  RH  067%=      5-min Rain = 0
KPD1 160555Z 34007KT 16/10 A3005 RMK A01 T01630102  RH  067%=      5-min Rain = 0
KPD1 160556Z 33007KT 16/10 A3005 RMK A01 T01630101  RH  067%=      5-min Rain = 0
KPD1 160557Z 33008KT 16/10 A3005 RMK A01 T01640101  RH  066%=      5-min Rain = 0
KPD1 160558Z 34008KT 17/10 A3005 RMK A01 T01660101  RH  065%=      5-min Rain = 0
KPD1 160559Z 34009KT 17/10 A3005 RMK A01 T01670100  RH  065%=      5-min Rain = 0
KPD1 160600Z 34009KT 17/10 A3005 RMK A01 T01690099  RH  063%=      5-min Rain = 0
KPD1 160601Z 33008KT 17/10 A3005 RMK A01 T01710100  RH  063%=      5-min Rain = 0
KPD1 160602Z 33008KT 17/10 A3005 RMK A01 T01720099  RH  062%=      5-min Rain = 0
KPD1 160603Z 33009KT 17/10 A3005 RMK A01 T01730098  RH  061%=      5-min Rain = 0
KPD1 160604Z 33007KT 18/10 A3005 RMK A01 T01750098  RH  061%=      5-min Rain = 0
KPD1 160605Z 32008KT 18/10 A3005 RMK A01 T01760098  RH  060%=      5-min Rain = 0
KPD1 160606Z 33008KT 18/10 A3005 RMK A01 T01760099  RH  061%=      5-min Rain = 0
KPD1 160607Z 33007KT 18/10 A3005 RMK A01 T01750099  RH  061%=      5-min Rain = 0
KPD1 160608Z 33008KT 17/10 A3005 RMK A01 T01740099  RH  061%=      5-min Rain = 0
KPD1 160609Z 33009KT 17/10 A3005 RMK A01 T01730099  RH  062%=      5-min Rain = 0
KPD1 160610Z 32008KT 17/10 A3005 RMK A01 T01730099  RH  062%=      5-min Rain = 0
KPD1 160611Z 33008KT 17/10 A3005 RMK A01 T01720100  RH  063%=      5-min Rain = 0
KPD1 160612Z 32009KT 17/10 A3005 RMK A01 T01710100  RH  063%=      5-min Rain = 0
KPD1 160613Z 32008KT 17/10 A3005 RMK A01 T01710100  RH  063%=      5-min Rain = 0
KPD1 160614Z 32007KT 17/10 A3005 RMK A01 T01710100  RH  063%=      5-min Rain = 0
KPD1 160615Z 31007KT 17/10 A3005 RMK A01 T01710101  RH  064%=      5-min Rain = 0
KPD1 160616Z 32009KT 17/10 A3005 RMK A01 T01700102  RH  064%=      5-min Rain = 0
KPD1 160617Z 32009KT 17/10 A3005 RMK A01 T01700103  RH  065%=      5-min Rain = 0
KPD1 160618Z 32008KT 17/10 A3005 RMK A01 T01700103  RH  065%=      5-min Rain = 0
KPD1 160619Z 32008KT 17/10 A3006 RMK A01 T01700103  RH  064%=      5-min Rain = 0
KPD1 160620Z 31009KT 17/10 A3006 RMK A01 T01710103  RH  064%=      5-min Rain = 0
KPD1 160621Z 31008KT 17/10 A3006 RMK A01 T01720103  RH  064%=      5-min Rain = 0
KPD1 160622Z 31009KT 17/10 A3006 RMK A01 T01730104  RH  064%=      5-min Rain = 0
KPD1 160623Z 31009KT 17/11 A3006 RMK A01 T01730105  RH  065%=      5-min Rain = 0
KPD1 160624Z 32009KT 17/11 A3006 RMK A01 T01730106  RH  065%=      5-min Rain = 0
KPD1 160625Z 32009KT 17/11 A3006 RMK A01 T01720106  RH  065%=      5-min Rain = 0
KPD1 160626Z 32010KT 17/11 A3005 RMK A01 T01730107  RH  065%=      5-min Rain = 0
KPD1 160627Z 32010KT 17/11 A3005 RMK A01 T01730108  RH  066%=      5-min Rain = 0
KPD1 160628Z 33009KT 17/11 A3005 RMK A01 T01730109  RH  066%=      5-min Rain = 0
KPD1 160629Z 32008KT 17/11 A3006 RMK A01 T01740110  RH  066%=      5-min Rain = 0
KPD1 160630Z 32007KT 17/11 A3006 RMK A01 T01730110  RH  066%=      5-min Rain = 0
KPD1 160631Z 32005KT 17/11 A3006 RMK A01 T01720109  RH  066%=      5-min Rain = 0
KPD1 160632Z 33001KT 17/11 A3007 RMK A01 T01710108  RH  067%=      5-min Rain = 0
KPD1 160633Z 15010KT 17/11 A3008 RMK A01 T01700109  RH  067%=      5-min Rain = 0
KPD1 160634Z 17013G18KT 17/11 A3008 RMK A01 T01690107  RH  067%=      5-min Rain = 0
KPD1 160635Z 18013KT 17/10 A3009 RMK A01 T01680104  RH  066%=      5-min Rain = 0
KPD1 160636Z 18012KT 17/10 A3009 RMK A01 T01660101  RH  065%=      5-min Rain = 0
KPD1 160637Z 18010KT 17/10 A3009 RMK A01 T01660100  RH  065%=      5-min Rain = 0
KPD1 160638Z 20009KT 17/10 A3009 RMK A01 T01660099  RH  065%=      5-min Rain = 0
KPD1 160639Z 21009KT 17/10 A3009 RMK A01 T01660100  RH  065%=      5-min Rain = 0
KPD1 160640Z 21008KT 17/10 A3009 RMK A01 T01670100  RH  064%=      5-min Rain = 0
KPD1 160641Z 19006KT 17/10 A3009 RMK A01 T01670099  RH  064%=      5-min Rain = 0
KPD1 160642Z 17008KT 17/10 A3009 RMK A01 T01680100  RH  064%=      5-min Rain = 0
KPD1 160643Z 17009KT 17/10 A301 RMK A01 T01680099  RH  064%=      5-min Rain = 0
KPD1 160644Z 16006KT 17/10 A301 RMK A01 T01680099  RH  064%=      5-min Rain = 0
KPD1 160645Z 16006KT 17/10 A3011 RMK A01 T01680099  RH  064%=      5-min Rain = 0
KPD1 160646Z 17004KT 17/10 A301 RMK A01 T01670099  RH  064%=      5-min Rain = 0
KPD1 160647Z 17001KT 17/10 A301 RMK A01 T01670099  RH  064%=      5-min Rain = 0
KPD1 160648Z 26000KT 17/10 A301 RMK A01 T01670099  RH  064%=      5-min Rain = 0
KPD1 160649Z 27001KT 17/10 A3009 RMK A01 T01670099  RH  064%=      5-min Rain = 0
KPD1 160650Z 29000KT 17/10 A3009 RMK A01 T01660098  RH  064%=      5-min Rain = 0
KPD1 160651Z 34002KT 17/10 A3009 RMK A01 T01660098  RH  064%=      5-min Rain = 0
KPD1 160652Z 35002KT 17/10 A3009 RMK A01 T01660098  RH  064%=      5-min Rain = 0
KPD1 160653Z 35000KT 17/10 A3009 RMK A01 T01650098  RH  065%=      5-min Rain = 0
KPD1 160654Z 00000KT 17/10 A3009 RMK A01 T01650098  RH  065%=      5-min Rain = 0
KPD1 160655Z 35001KT 16/10 A3009 RMK A01 T01640098  RH  065%=      5-min Rain = 0
KPD1 160656Z 35002KT 16/10 A301 RMK A01 T01630098  RH  065%=      5-min Rain = 0
KPD1 160657Z 18002KT 16/10 A301 RMK A01 T01620097  RH  065%=      5-min Rain = 0
KPD1 160658Z 19002KT 16/10 A301 RMK A01 T01600096  RH  066%=      5-min Rain = 0
KPD1 160659Z 19001KT 16/10 A3009 RMK A01 T01580096  RH  067%=      5-min Rain = 0
KPD1 160700Z 21001KT 16/10 A3009 RMK A01 T01570097  RH  067%=      5-min Rain = 0
KPD1 160701Z 24002KT 16/10 A3009 RMK A01 T01570097  RH  068%=      5-min Rain = 0
KPD1 160702Z 25003KT 16/10 A3009 RMK A01 T01560097  RH  068%=      5-min Rain = 0
KPD1 160703Z 25003KT 16/10 A3009 RMK A01 T01550097  RH  068%=      5-min Rain = 0
KPD1 160704Z 24004KT 16/10 A3009 RMK A01 T01550098  RH  069%=      5-min Rain = 0
KPD1 160705Z 23005KT 15/10 A3009 RMK A01 T01540097  RH  069%=      5-min Rain = 0
KPD1 160706Z 22005KT 15/10 A3009 RMK A01 T01530097  RH  069%=      5-min Rain = 0
KPD1 160707Z 22005KT 15/10 A3009 RMK A01 T01530098  RH  070%=      5-min Rain = 0
KPD1 160708Z 23005KT 15/10 A3009 RMK A01 T01530098  RH  070%=      5-min Rain = 0
KPD1 160709Z 23005KT 15/10 A3009 RMK A01 T01530099  RH  070%=      5-min Rain = 0
KPD1 160710Z 23005KT 15/10 A3009 RMK A01 T01540099  RH  070%=      5-min Rain = 0
KPD1 160711Z 24004KT 15/10 A3009 RMK A01 T01540100  RH  070%=      5-min Rain = 0
KPD1 160712Z 26005KT 16/10 A3009 RMK A01 T01550100  RH  070%=      5-min Rain = 0
KPD1 160713Z 27004KT 16/10 A3009 RMK A01 T01550101  RH  070%=      5-min Rain = 0
KPD1 160714Z 28005KT 16/10 A3009 RMK A01 T01560101  RH  070%=      5-min Rain = 0
KPD1 160715Z 28005KT 16/10 A3009 RMK A01 T01560101  RH  070%=      5-min Rain = 0
KPD1 160716Z 29005KT 16/10 A3009 RMK A01 T01560101  RH  070%=      5-min Rain = 0
KPD1 160717Z 29005KT 16/10 A3009 RMK A01 T01570101  RH  070%=      5-min Rain = 0
KPD1 160718Z 30005KT 16/10 A3009 RMK A01 T01570102  RH  069%=      5-min Rain = 0
KPD1 160719Z 30006KT 16/10 A3008 RMK A01 T01580102  RH  069%=      5-min Rain = 0
KPD1 160720Z 30006KT 16/10 A3008 RMK A01 T01590103  RH  069%=      5-min Rain = 0
KPD1 160721Z 30006KT 16/10 A3008 RMK A01 T01600103  RH  069%=      5-min Rain = 0
KPD1 160722Z 30005KT 16/10 A3008 RMK A01 T01600103  RH  069%=      5-min Rain = 0
KPD1 160723Z 30005KT 16/10 A3008 RMK A01 T01610102  RH  068%=      5-min Rain = 0
KPD1 160724Z 30005KT 16/10 A3008 RMK A01 T01620101  RH  067%=      5-min Rain = 0
KPD1 160725Z 31004KT 16/10 A3008 RMK A01 T01630101  RH  067%=      5-min Rain = 0
KPD1 160726Z 31005KT 16/10 A3009 RMK A01 T01630101  RH  066%=      5-min Rain = 0
KPD1 160727Z 31005KT 16/10 A3009 RMK A01 T01630101  RH  067%=      5-min Rain = 0
KPD1 160728Z 31005KT 16/10 A3009 RMK A01 T01630102  RH  067%=      5-min Rain = 0
KPD1 160729Z 31005KT 16/10 A3009 RMK A01 T01630103  RH  068%=      5-min Rain = 0
KPD1 160730Z 31005KT 16/10 A3009 RMK A01 T01620103  RH  068%=      5-min Rain = 0
KPD1 160731Z 32006KT 16/10 A3009 RMK A01 T01620103  RH  068%=      5-min Rain = 0
KPD1 160732Z 32006KT 16/10 A3009 RMK A01 T01620103  RH  068%=      5-min Rain = 0
KPD1 160733Z 33006KT 16/10 A3009 RMK A01 T01620103  RH  068%=      5-min Rain = 0
KPD1 160734Z 35006KT 16/10 A3009 RMK A01 T01610104  RH  069%=      5-min Rain = 0
KPD1 160735Z 36006KT 16/10 A3009 RMK A01 T01610104  RH  069%=      5-min Rain = 0
KPD1 160736Z 35006KT 16/10 A3009 RMK A01 T01600104  RH  069%=      5-min Rain = 0
KPD1 160737Z 34007KT 16/10 A3008 RMK A01 T01600104  RH  070%=      5-min Rain = 0
KPD1 160738Z 35006KT 16/10 A3008 RMK A01 T01600104  RH  069%=      5-min Rain = 0
KPD1 160739Z 35006KT 16/10 A3008 RMK A01 T01600104  RH  069%=      5-min Rain = 0
KPD1 160740Z 36006KT 16/10 A3008 RMK A01 T01610104  RH  069%=      5-min Rain = 0
KPD1 160741Z 35006KT 16/10 A3008 RMK A01 T01610104  RH  069%=      5-min Rain = 0
KPD1 160742Z 35006KT 16/11 A3008 RMK A01 T01610105  RH  069%=      5-min Rain = 0
KPD1 160743Z 35007KT 16/11 A3008 RMK A01 T01610105  RH  069%=      5-min Rain = 0
KPD1 160744Z 35008KT 16/11 A3008 RMK A01 T01620105  RH  069%=      5-min Rain = 0
KPD1 160745Z 35009KT 16/11 A3008 RMK A01 T01620105  RH  069%=      5-min Rain = 0
KPD1 160746Z 34008KT 16/11 A3008 RMK A01 T01630107  RH  069%=      5-min Rain = 0
KPD1 160747Z 34007KT 16/11 A3008 RMK A01 T01640107  RH  069%=      5-min Rain = 0
KPD1 160748Z 35006KT 16/11 A3008 RMK A01 T01640107  RH  069%=      5-min Rain = 0
KPD1 160749Z 35007KT 16/11 A3008 RMK A01 T01640107  RH  069%=      5-min Rain = 0
KPD1 160750Z 35006KT 16/11 A3008 RMK A01 T01640108  RH  069%=      5-min Rain = 0
KPD1 160751Z 35006KT 16/11 A3008 RMK A01 T01640108  RH  069%=      5-min Rain = 0
KPD1 160752Z 35005KT 16/11 A3008 RMK A01 T01640108  RH  069%=      5-min Rain = 0
KPD1 160753Z 36005KT 16/11 A3008 RMK A01 T01640108  RH  070%=      5-min Rain = 0
KPD1 160754Z 00004KT 16/11 A3008 RMK A01 T01630108  RH  070%=      5-min Rain = 0
KPD1 160755Z 36004KT 16/11 A3008 RMK A01 T01630108  RH  070%=      5-min Rain = 0
KPD1 160756Z 35005KT 16/11 A3008 RMK A01 T01630108  RH  070%=      5-min Rain = 0
KPD1 160757Z 35005KT 16/11 A3008 RMK A01 T01630108  RH  070%=      5-min Rain = 0
KPD1 160758Z 35005KT 16/11 A3008 RMK A01 T01620108  RH  070%=      5-min Rain = 0
KPD1 160759Z 35005KT 16/11 A3008 RMK A01 T01620108  RH  070%=      5-min Rain = 0
KPD1 160800Z 35006KT 16/11 A3008 RMK A01 T01620108  RH  070%=      5-min Rain = 0
KPD1 160801Z 36005KT 16/11 A3008 RMK A01 T01620108  RH  071%=      5-min Rain = 0
KPD1 160802Z 36005KT 16/11 A3008 RMK A01 T01620109  RH  071%=      5-min Rain = 0
KPD1 160803Z 35006KT 16/11 A3008 RMK A01 T01630109  RH  070%=      5-min Rain = 0
KPD1 160804Z 35006KT 16/11 A3008 RMK A01 T01630110  RH  070%=      5-min Rain = 0
KPD1 160805Z 34006KT 16/11 A3008 RMK A01 T01640110  RH  070%=      5-min Rain = 0
KPD1 160806Z 35006KT 16/11 A3008 RMK A01 T01630110  RH  071%=      5-min Rain = 0
KPD1 160807Z 35006KT 16/11 A3008 RMK A01 T01630111  RH  071%=      5-min Rain = 0
KPD1 160808Z 36005KT 16/11 A3008 RMK A01 T01630111  RH  071%=      5-min Rain = 0
KPD1 160809Z 36006KT 16/11 A3008 RMK A01 T01630111  RH  071%=      5-min Rain = 0
KPD1 160810Z 00006KT 16/11 A3008 RMK A01 T01630112  RH  071%=      5-min Rain = 0
KPD1 160811Z 00006KT 16/11 A3008 RMK A01 T01630112  RH  071%=      5-min Rain = 0
KPD1 160812Z 00006KT 16/11 A3008 RMK A01 T01630112  RH  072%=      5-min Rain = 0
KPD1 160813Z 00005KT 16/11 A3007 RMK A01 T01630112  RH  072%=      5-min Rain = 0
KPD1 160814Z 36006KT 16/11 A3007 RMK A01 T01630112  RH  072%=      5-min Rain = 0
KPD1 160815Z 36006KT 16/11 A3007 RMK A01 T01630113  RH  072%=      5-min Rain = 0
KPD1 160816Z 36006KT 16/11 A3007 RMK A01 T01630113  RH  072%=      5-min Rain = 0
KPD1 160817Z 36006KT 16/11 A3007 RMK A01 T01630113  RH  072%=      5-min Rain = 0
KPD1 160818Z 35006KT 16/11 A3007 RMK A01 T01620113  RH  072%=      5-min Rain = 0
KPD1 160819Z 35007KT 16/11 A3007 RMK A01 T01630114  RH  073%=      5-min Rain = 0
KPD1 160820Z 35006KT 16/11 A3007 RMK A01 T01620114  RH  073%=      5-min Rain = 0
KPD1 160821Z 35006KT 16/11 A3007 RMK A01 T01620114  RH  073%=      5-min Rain = 0
KPD1 160822Z 35007KT 16/12 A3007 RMK A01 T01620115  RH  073%=      5-min Rain = 0
KPD1 160823Z 35006KT 16/12 A3007 RMK A01 T01620115  RH  074%=      5-min Rain = 0
KPD1 160824Z 36006KT 16/12 A3007 RMK A01 T01620115  RH  074%=      5-min Rain = 0
KPD1 160825Z 36006KT 16/12 A3007 RMK A01 T01630116  RH  074%=      5-min Rain = 0
KPD1 160826Z 35005KT 16/12 A3007 RMK A01 T01630116  RH  074%=      5-min Rain = 0
KPD1 160827Z 36004KT 16/12 A3007 RMK A01 T01630116  RH  074%=      5-min Rain = 0
KPD1 160828Z 01004KT 16/12 A3007 RMK A01 T01630116  RH  074%=      5-min Rain = 0
KPD1 160829Z 36006KT 16/12 A3007 RMK A01 T01640117  RH  074%=      5-min Rain = 0
KPD1 160830Z 35004KT 16/12 A3007 RMK A01 T01630117  RH  074%=      5-min Rain = 0
KPD1 160831Z 36005KT 16/12 A3007 RMK A01 T01630117  RH  074%=      5-min Rain = 0
KPD1 160832Z 36005KT 16/12 A3007 RMK A01 T01630117  RH  074%=      5-min Rain = 0
KPD1 160833Z 34004KT 16/12 A3007 RMK A01 T01630117  RH  074%=      5-min Rain = 0
KPD1 160834Z 34004KT 16/12 A3007 RMK A01 T01630117  RH  074%=      5-min Rain = 0
KPD1 160835Z 34004KT 16/12 A3007 RMK A01 T01630117  RH  074%=      5-min Rain = 0
KPD1 160836Z 34004KT 16/12 A3007 RMK A01 T01620117  RH  074%=      5-min Rain = 0
KPD1 160837Z 35005KT 16/12 A3007 RMK A01 T01620117  RH  075%=      5-min Rain = 0
KPD1 160838Z 34004KT 16/12 A3007 RMK A01 T01620117  RH  075%=      5-min Rain = 0
KPD1 160839Z 34004KT 16/12 A3007 RMK A01 T01620117  RH  075%=      5-min Rain = 0
KPD1 160840Z 35003KT 16/12 A3007 RMK A01 T01620117  RH  075%=      5-min Rain = 0
KPD1 160841Z 00004KT 16/12 A3007 RMK A01 T01620117  RH  075%=      5-min Rain = 0
KPD1 160842Z 01004KT 16/12 A3007 RMK A01 T01620117  RH  075%=      5-min Rain = 0
KPD1 160843Z 02005KT 16/12 A3007 RMK A01 T01620117  RH  075%=      5-min Rain = 0
KPD1 160844Z 02006KT 16/12 A3007 RMK A01 T01620117  RH  075%=      5-min Rain = 0
KPD1 160845Z 02005KT 16/12 A3006 RMK A01 T01620118  RH  075%=      5-min Rain = 0
KPD1 160846Z 02005KT 16/12 A3006 RMK A01 T01630118  RH  075%=      5-min Rain = 0
KPD1 160847Z 02006KT 16/12 A3006 RMK A01 T01630118  RH  075%=      5-min Rain = 0
KPD1 160848Z 02006KT 16/12 A3006 RMK A01 T01630118  RH  075%=      5-min Rain = 0
KPD1 160849Z 02005KT 16/12 A3006 RMK A01 T01630118  RH  075%=      5-min Rain = 0
KPD1 160850Z 02005KT 16/12 A3006 RMK A01 T01630118  RH  075%=      5-min Rain = 0
KPD1 160851Z 01005KT 16/12 A3007 RMK A01 T01630118  RH  075%=      5-min Rain = 0
KPD1 160852Z 01006KT 16/12 A3007 RMK A01 T01630118  RH  075%=      5-min Rain = 0
KPD1 160853Z 01006KT 16/12 A3007 RMK A01 T01620118  RH  075%=      5-min Rain = 0
KPD1 160854Z 01005KT 16/12 A3007 RMK A01 T01620118  RH  075%=      5-min Rain = 0
KPD1 160855Z 01005KT 16/12 A3007 RMK A01 T01610118  RH  075%=      5-min Rain = 0
KPD1 160856Z 01004KT 16/12 A3007 RMK A01 T01610118  RH  076%=      5-min Rain = 0
KPD1 160857Z 02004KT 16/12 A3007 RMK A01 T01610118  RH  076%=      5-min Rain = 0
KPD1 160858Z 03005KT 16/12 A3007 RMK A01 T01610119  RH  076%=      5-min Rain = 0
KPD1 160859Z 03004KT 16/12 A3006 RMK A01 T01610119  RH  076%=      5-min Rain = 0
KPD1 160900Z 03004KT 16/12 A3006 RMK A01 T01610120  RH  076%=      5-min Rain = 0
KPD1 160901Z 03003KT 16/12 A3006 RMK A01 T01610120  RH  076%=      5-min Rain = 0
KPD1 160902Z 04002KT 16/12 A3006 RMK A01 T01610120  RH  076%=      5-min Rain = 0
KPD1 160903Z 05003KT 16/12 A3007 RMK A01 T01610120  RH  076%=      5-min Rain = 0
KPD1 160904Z 06002KT 16/12 A3007 RMK A01 T01610120  RH  076%=      5-min Rain = 0
KPD1 160905Z 05004KT 16/12 A3007 RMK A01 T01600120  RH  077%=      5-min Rain = 0
KPD1 160906Z 03004KT 16/12 A3007 RMK A01 T01600120  RH  077%=      5-min Rain = 0
KPD1 160907Z 03005KT 16/12 A3006 RMK A01 T01600120  RH  077%=      5-min Rain = 0
KPD1 160908Z 02005KT 16/12 A3006 RMK A01 T01600120  RH  077%=      5-min Rain = 0
KPD1 160909Z 02005KT 16/12 A3006 RMK A01 T01590119  RH  077%=      5-min Rain = 0
KPD1 160910Z 02005KT 16/12 A3006 RMK A01 T01590120  RH  077%=      5-min Rain = 0
KPD1 160911Z 01005KT 16/12 A3006 RMK A01 T01590120  RH  077%=      5-min Rain = 0
KPD1 160912Z 01005KT 16/12 A3006 RMK A01 T01590119  RH  077%=      5-min Rain = 0
KPD1 160913Z 01005KT 16/12 A3006 RMK A01 T01590119  RH  077%=      5-min Rain = 0
KPD1 160914Z 01005KT 16/12 A3006 RMK A01 T01580119  RH  077%=      5-min Rain = 0
KPD1 160915Z 01006KT 16/12 A3006 RMK A01 T01580119  RH  077%=      5-min Rain = 0
KPD1 160916Z 01006KT 16/12 A3006 RMK A01 T01580119  RH  078%=      5-min Rain = 0
KPD1 160917Z 01007KT 16/12 A3006 RMK A01 T01570119  RH  078%=      5-min Rain = 0
KPD1 160918Z 00006KT 16/12 A3006 RMK A01 T01580120  RH  078%=      5-min Rain = 0
KPD1 160919Z 01007KT 16/12 A3006 RMK A01 T01570119  RH  078%=      5-min Rain = 0
KPD1 160920Z 01007KT 16/12 A3006 RMK A01 T01570120  RH  078%=      5-min Rain = 0
KPD1 160921Z 02007KT 16/12 A3006 RMK A01 T01570120  RH  079%=      5-min Rain = 0
KPD1 160922Z 01006KT 16/12 A3006 RMK A01 T01580121  RH  078%=      5-min Rain = 0
KPD1 160923Z 01006KT 16/12 A3007 RMK A01 T01580120  RH  078%=      5-min Rain = 0
KPD1 160924Z 01006KT 16/12 A3007 RMK A01 T01580120  RH  078%=      5-min Rain = 0
KPD1 160925Z 01008KT 16/12 A3007 RMK A01 T01580120  RH  078%=      5-min Rain = 0
KPD1 160926Z 01008KT 16/12 A3007 RMK A01 T01590120  RH  078%=      5-min Rain = 0
KPD1 160927Z 01006KT 16/12 A3007 RMK A01 T01590121  RH  078%=      5-min Rain = 0
KPD1 160928Z 01008KT 16/12 A3007 RMK A01 T01590120  RH  078%=      5-min Rain = 0
KPD1 160929Z 01008KT 16/12 A3007 RMK A01 T01590120  RH  078%=      5-min Rain = 0
KPD1 160930Z 02007KT 16/12 A3007 RMK A01 T01580120  RH  078%=      5-min Rain = 0
KPD1 160931Z 01007KT 16/12 A3007 RMK A01 T01570119  RH  078%=      5-min Rain = 0
KPD1 160932Z 02007KT 16/12 A3007 RMK A01 T01570120  RH  078%=      5-min Rain = 0
KPD1 160933Z 01006KT 16/12 A3007 RMK A01 T01560119  RH  078%=      5-min Rain = 0
KPD1 160934Z 02007KT 16/12 A3007 RMK A01 T01560119  RH  079%=      5-min Rain = 0
KPD1 160935Z 02007KT 16/12 A3007 RMK A01 T01560119  RH  079%=      5-min Rain = 0
KPD1 160936Z 02008KT 16/12 A3007 RMK A01 T01550119  RH  079%=      5-min Rain = 0
KPD1 160937Z 02007KT 16/12 A3007 RMK A01 T01550119  RH  079%=      5-min Rain = 0
KPD1 160938Z 01007KT 16/12 A3007 RMK A01 T01550119  RH  079%=      5-min Rain = 0
KPD1 160939Z 01007KT 16/12 A3007 RMK A01 T01550119  RH  079%=      5-min Rain = 0
KPD1 160940Z 01006KT 16/12 A3007 RMK A01 T01550119  RH  079%=      5-min Rain = 0
KPD1 160941Z 01009KT 16/12 A3007 RMK A01 T01550119  RH  079%=      5-min Rain = 0
KPD1 160942Z 01007KT 16/12 A3007 RMK A01 T01550119  RH  079%=      5-min Rain = 0
KPD1 160943Z 00006KT 15/12 A3007 RMK A01 T01540118  RH  079%=      5-min Rain = 0
KPD1 160944Z 02005KT 15/12 A3007 RMK A01 T01530117  RH  079%=      5-min Rain = 0
KPD1 160945Z 03006KT 15/12 A3007 RMK A01 T01530116  RH  078%=      5-min Rain = 0
KPD1 160946Z 03004KT 15/11 A3007 RMK A01 T01530114  RH  078%=      5-min Rain = 0
KPD1 160947Z 04007KT 15/12 A3007 RMK A01 T01530115  RH  078%=      5-min Rain = 0
KPD1 160948Z 03007KT 15/12 A3007 RMK A01 T01530115  RH  078%=      5-min Rain = 0
KPD1 160949Z 04009KT 15/12 A3007 RMK A01 T01540117  RH  079%=      5-min Rain = 0
KPD1 160950Z 04006KT 16/12 A3007 RMK A01 T01550119  RH  079%=      5-min Rain = 0
KPD1 160951Z 05007KT 16/12 A3007 RMK A01 T01550118  RH  079%=      5-min Rain = 0
KPD1 160952Z 04006KT 16/12 A3007 RMK A01 T01550118  RH  079%=      5-min Rain = 0
KPD1 160953Z 05008KT 16/12 A3007 RMK A01 T01560119  RH  079%=      5-min Rain = 0
KPD1 160954Z 05008KT 16/12 A3007 RMK A01 T01560120  RH  079%=      5-min Rain = 0
KPD1 160955Z 05007KT 16/12 A3007 RMK A01 T01570121  RH  079%=      5-min Rain = 0
KPD1 160956Z 06008G13KT 16/12 A3007 RMK A01 T01570120  RH  079%=      5-min Rain = 0
KPD1 160957Z 05009G14KT 16/12 A3007 RMK A01 T01580121  RH  079%=      5-min Rain = 0
KPD1 160958Z 04006KT 16/12 A3007 RMK A01 T01600122  RH  078%=      5-min Rain = 0
KPD1 160959Z 05007KT 16/12 A3007 RMK A01 T01610121  RH  077%=      5-min Rain = 0
KPD1 161000Z 03005KT 16/12 A3007 RMK A01 T01610122  RH  077%=      5-min Rain = 0
KPD1 161001Z 04007KT 16/12 A3007 RMK A01 T01630123  RH  077%=      5-min Rain = 0
KPD1 161002Z 05006KT 16/12 A3007 RMK A01 T01620122  RH  077%=      5-min Rain = 0
KPD1 161003Z 05005KT 16/12 A3007 RMK A01 T01620122  RH  078%=      5-min Rain = 0
KPD1 161004Z 05004KT 16/12 A3007 RMK A01 T01610122  RH  078%=      5-min Rain = 0
KPD1 161005Z 05003KT 16/12 A3007 RMK A01 T01610123  RH  078%=      5-min Rain = 0
KPD1 161006Z 04003KT 16/12 A3007 RMK A01 T01600122  RH  078%=      5-min Rain = 0
KPD1 161007Z 04003KT 16/12 A3007 RMK A01 T01590122  RH  079%=      5-min Rain = 0
KPD1 161008Z 02002KT 16/12 A3007 RMK A01 T01590123  RH  079%=      5-min Rain = 0
KPD1 161009Z 03002KT 16/12 A3007 RMK A01 T01590123  RH  079%=      5-min Rain = 0
KPD1 161010Z 07004KT 16/12 A3007 RMK A01 T01580123  RH  079%=      5-min Rain = 0
KPD1 161011Z 05005KT 16/12 A3007 RMK A01 T01580123  RH  080%=      5-min Rain = 0
KPD1 161012Z 04004KT 16/12 A3007 RMK A01 T01570124  RH  081%=      5-min Rain = 0
KPD1 161013Z 04004KT 16/13 A3007 RMK A01 T01570125  RH  081%=      5-min Rain = 0
KPD1 161014Z 08002KT 16/13 A3007 RMK A01 T01570125  RH  081%=      5-min Rain = 0
KPD1 161015Z 08003KT 16/13 A3007 RMK A01 T01570125  RH  081%=      5-min Rain = 0
KPD1 161016Z 05004KT 16/13 A3007 RMK A01 T01560125  RH  082%=      5-min Rain = 0
KPD1 161017Z 04006KT 16/13 A3007 RMK A01 T01560126  RH  082%=      5-min Rain = 0
KPD1 161018Z 03004KT 16/13 A3007 RMK A01 T01570128  RH  083%=      5-min Rain = 0
KPD1 161019Z 04004KT 16/13 A3007 RMK A01 T01570127  RH  082%=      5-min Rain = 0
KPD1 161020Z 05004KT 16/13 A3007 RMK A01 T01570126  RH  082%=      5-min Rain = 0
KPD1 161021Z 05004KT 16/13 A3007 RMK A01 T01560127  RH  082%=      5-min Rain = 0
KPD1 161022Z 07003KT 16/13 A3007 RMK A01 T01560127  RH  083%=      5-min Rain = 0
KPD1 161023Z 08003KT 16/13 A3007 RMK A01 T01570127  RH  083%=      5-min Rain = 0
KPD1 161024Z 10003KT 16/13 A3007 RMK A01 T01560127  RH  083%=      5-min Rain = 0
KPD1 161025Z 10002KT 16/13 A3007 RMK A01 T01560127  RH  082%=      5-min Rain = 0
KPD1 161026Z 08002KT 16/13 A3007 RMK A01 T01560126  RH  083%=      5-min Rain = 0
KPD1 161027Z 13002KT 16/13 A3007 RMK A01 T01550126  RH  083%=      5-min Rain = 0
KPD1 161028Z 12002KT 15/13 A3007 RMK A01 T01540126  RH  083%=      5-min Rain = 0
KPD1 161029Z 13003KT 15/13 A3007 RMK A01 T01540126  RH  083%=      5-min Rain = 0
KPD1 161030Z 13003KT 15/13 A3007 RMK A01 T01530125  RH  083%=      5-min Rain = 0
KPD1 161031Z 13003KT 15/13 A3007 RMK A01 T01530125  RH  083%=      5-min Rain = 0
KPD1 161032Z 13003KT 15/12 A3007 RMK A01 T01520124  RH  083%=      5-min Rain = 0
KPD1 161033Z 12003KT 15/12 A3007 RMK A01 T01510123  RH  083%=      5-min Rain = 0
KPD1 161034Z 14003KT 15/12 A3007 RMK A01 T01510123  RH  083%=      5-min Rain = 0
KPD1 161035Z 14003KT 15/12 A3007 RMK A01 T01500122  RH  083%=      5-min Rain = 0
KPD1 161036Z 14003KT 15/12 A3007 RMK A01 T01500122  RH  083%=      5-min Rain = 0
KPD1 161037Z 14003KT 15/12 A3007 RMK A01 T01490122  RH  084%=      5-min Rain = 0
KPD1 161038Z 14003KT 15/12 A3007 RMK A01 T01490122  RH  084%=      5-min Rain = 0
KPD1 161039Z 14003KT 15/12 A3007 RMK A01 T01480122  RH  084%=      5-min Rain = 0
KPD1 161040Z 12003KT 15/12 A3007 RMK A01 T01480122  RH  084%=      5-min Rain = 0
KPD1 161041Z 11002KT 15/12 A3007 RMK A01 T01480122  RH  084%=      5-min Rain = 0
KPD1 161042Z 10003KT 15/12 A3007 RMK A01 T01480122  RH  085%=      5-min Rain = 0
KPD1 161043Z 10002KT 15/12 A3006 RMK A01 T01480124  RH  086%=      5-min Rain = 0
KPD1 161044Z 09003KT 15/13 A3006 RMK A01 T01490127  RH  087%=      5-min Rain = 0
KPD1 161045Z 09003KT 15/13 A3006 RMK A01 T01480127  RH  087%=      5-min Rain = 0
KPD1 161046Z 07004KT 15/13 A3006 RMK A01 T01480127  RH  087%=      5-min Rain = 0
KPD1 161047Z 07004KT 15/13 A3006 RMK A01 T01480128  RH  088%=      5-min Rain = 0
KPD1 161048Z 07004KT 15/13 A3006 RMK A01 T01490130  RH  088%=      5-min Rain = 0
KPD1 161049Z 08004KT 15/13 A3006 RMK A01 T01500131  RH  089%=      5-min Rain = 0
KPD1 161050Z 08004KT 15/13 A3006 RMK A01 T01500131  RH  089%=      5-min Rain = 0
KPD1 161051Z 08003KT 15/13 A3006 RMK A01 T01500132  RH  089%=      5-min Rain = 0
KPD1 161052Z 10002KT 15/13 A3007 RMK A01 T01500132  RH  089%=      5-min Rain = 0
KPD1 161053Z 11002KT 15/13 A3007 RMK A01 T01500131  RH  089%=      5-min Rain = 0
KPD1 161054Z 11001KT 15/13 A3007 RMK A01 T01490130  RH  089%=      5-min Rain = 0
KPD1 161055Z 00000KT 15/13 A3006 RMK A01 T01480130  RH  089%=      5-min Rain = 0
KPD1 161056Z 00000KT 15/13 A3006 RMK A01 T01480131  RH  089%=      5-min Rain = 0
KPD1 161057Z 00000KT 15/13 A3006 RMK A01 T01480131  RH  089%=      5-min Rain = 0
KPD1 161058Z 04002KT 15/13 A3007 RMK A01 T01480131  RH  089%=      5-min Rain = 0
KPD1 161059Z 04002KT 15/13 A3007 RMK A01 T01480131  RH  090%=      5-min Rain = 0
KPD1 161100Z 04001KT 15/13 A3007 RMK A01 T01480131  RH  090%=      5-min Rain = 0
KPD1 161101Z 04001KT 15/13 A3007 RMK A01 T01470131  RH  090%=      5-min Rain = 0
KPD1 161102Z 04001KT 15/13 A3007 RMK A01 T01480131  RH  090%=      5-min Rain = 0
KPD1 161103Z 04002KT 15/13 A3007 RMK A01 T01470131  RH  090%=      5-min Rain = 0
KPD1 161104Z 04002KT 15/13 A3007 RMK A01 T01470131  RH  090%=      5-min Rain = 0
KPD1 161105Z 04002KT 15/13 A3007 RMK A01 T01470131  RH  090%=      5-min Rain = 0
KPD1 161106Z 03003KT 15/13 A3007 RMK A01 T01460130  RH  090%=      5-min Rain = 0
KPD1 161107Z 04003KT 15/13 A3007 RMK A01 T01450129  RH  090%=      5-min Rain = 0
KPD1 161108Z 03004KT 15/13 A3007 RMK A01 T01450130  RH  091%=      5-min Rain = 0
KPD1 161109Z 03004KT 15/13 A3007 RMK A01 T01450131  RH  091%=      5-min Rain = 0
KPD1 161110Z 02004KT 15/13 A3007 RMK A01 T01460131  RH  091%=      5-min Rain = 0
KPD1 161111Z 03004KT 15/13 A3007 RMK A01 T01450131  RH  091%=      5-min Rain = 0
KPD1 161112Z 03004KT 15/13 A3007 RMK A01 T01450131  RH  091%=      5-min Rain = 0
KPD1 161113Z 04004KT 15/13 A3007 RMK A01 T01450131  RH  091%=      5-min Rain = 0
KPD1 161114Z 05004KT 15/13 A3006 RMK A01 T01450131  RH  092%=      5-min Rain = 0
KPD1 161115Z 05004KT 15/13 A3006 RMK A01 T01450132  RH  092%=      5-min Rain = 0
KPD1 161116Z 05005KT 15/13 A3006 RMK A01 T01450132  RH  092%=      5-min Rain = 0
KPD1 161117Z 05005KT 15/13 A3006 RMK A01 T01460133  RH  092%=      5-min Rain = 0
KPD1 161118Z 05004KT 15/13 A3006 RMK A01 T01460134  RH  092%=      5-min Rain = 0
KPD1 161119Z 05003KT 15/13 A3006 RMK A01 T01470134  RH  092%=      5-min Rain = 0
KPD1 161120Z 05003KT 15/14 A3006 RMK A01 T01470135  RH  092%=      5-min Rain = 0
KPD1 161121Z 02003KT 15/14 A3006 RMK A01 T01480135  RH  092%=      5-min Rain = 0
KPD1 161122Z 02004KT 15/13 A3006 RMK A01 T01470134  RH  092%=      5-min Rain = 0
KPD1 161123Z 01004KT 15/13 A3006 RMK A01 T01470133  RH  091%=      5-min Rain = 0
KPD1 161124Z 02003KT 15/13 A3006 RMK A01 T01460131  RH  091%=      5-min Rain = 0
KPD1 161125Z 02003KT 15/13 A3006 RMK A01 T01450130  RH  091%=      5-min Rain = 0
KPD1 161126Z 02003KT 14/13 A3006 RMK A01 T01440130  RH  091%=      5-min Rain = 0
KPD1 161127Z 02003KT 14/13 A3006 RMK A01 T01440130  RH  091%=      5-min Rain = 0
KPD1 161128Z 03003KT 14/13 A3006 RMK A01 T01440130  RH  091%=      5-min Rain = 0
KPD1 161129Z 03003KT 14/13 A3006 RMK A01 T01430129  RH  091%=      5-min Rain = 0
KPD1 161130Z 03002KT 14/13 A3006 RMK A01 T01430129  RH  091%=      5-min Rain = 0
KPD1 161131Z 04001KT 14/13 A3006 RMK A01 T01430129  RH  091%=      5-min Rain = 0
KPD1 161132Z 04001KT 14/13 A3006 RMK A01 T01420129  RH  092%=      5-min Rain = 0
KPD1 161133Z 04001KT 14/13 A3006 RMK A01 T01410127  RH  091%=      5-min Rain = 0
KPD1 161134Z 03001KT 14/13 A3006 RMK A01 T01400125  RH  091%=      5-min Rain = 0
KPD1 161135Z 03001KT 14/13 A3006 RMK A01 T01390125  RH  091%=      5-min Rain = 0
KPD1 161136Z 03000KT 14/13 A3006 RMK A01 T01380125  RH  091%=      5-min Rain = 0
KPD1 161137Z 03000KT 14/12 A3006 RMK A01 T01370123  RH  091%=      5-min Rain = 0
KPD1 161138Z 31001KT 14/12 A3007 RMK A01 T01370124  RH  092%=      5-min Rain = 0
KPD1 161139Z 31001KT 14/13 A3007 RMK A01 T01380126  RH  092%=      5-min Rain = 0
KPD1 161140Z 31001KT 14/13 A3007 RMK A01 T01380127  RH  092%=      5-min Rain = 0
KPD1 161141Z 31001KT 14/13 A3007 RMK A01 T01380126  RH  093%=      5-min Rain = 0
KPD1 161142Z 31000KT 14/13 A3007 RMK A01 T01380127  RH  093%=      5-min Rain = 0
KPD1 161143Z 31001KT 14/13 A3007 RMK A01 T01380127  RH  093%=      5-min Rain = 0
KPD1 161144Z 32001KT 14/13 A3007 RMK A01 T01380127  RH  093%=      5-min Rain = 0
KPD1 161145Z 33001KT 14/13 A3007 RMK A01 T01380127  RH  093%=      5-min Rain = 0
KPD1 161146Z 33001KT 14/13 A3007 RMK A01 T01380127  RH  093%=      5-min Rain = 0
KPD1 161147Z 33000KT 14/13 A3007 RMK A01 T01380128  RH  093%=      5-min Rain = 0
KPD1 161148Z 00000KT 14/13 A3007 RMK A01 T01380128  RH  093%=      5-min Rain = 0
KPD1 161149Z 27001KT 14/13 A3007 RMK A01 T01390128  RH  093%=      5-min Rain = 0
KPD1 161150Z 26002KT 14/13 A3008 RMK A01 T01380127  RH  093%=      5-min Rain = 0
KPD1 161151Z 26002KT 14/13 A3008 RMK A01 T01370125  RH  093%=      5-min Rain = 0
KPD1 161152Z 26003KT 14/12 A3008 RMK A01 T01350124  RH  093%=      5-min Rain = 0
KPD1 161153Z 26003KT 14/13 A3008 RMK A01 T01360125  RH  093%=      5-min Rain = 0
KPD1 161154Z 26003KT 14/13 A3008 RMK A01 T01360125  RH  093%=      5-min Rain = 0
KPD1 161155Z 26003KT 14/13 A3008 RMK A01 T01360126  RH  093%=      5-min Rain = 0
KPD1 161156Z 26002KT 14/13 A3008 RMK A01 T01370127  RH  094%=      5-min Rain = 0
KPD1 161157Z 26002KT 14/13 A3008 RMK A01 T01370128  RH  094%=      5-min Rain = 0
KPD1 161158Z 25001KT 14/13 A3008 RMK A01 T01380128  RH  094%=      5-min Rain = 0
KPD1 161159Z 25001KT 14/13 A3008 RMK A01 T01380129  RH  094%=      5-min Rain = 0
KPD1 161200Z 25001KT 14/13 A3008 RMK A01 T01390129  RH  094%=      5-min Rain = 0
KPD1 161201Z 25002KT 14/13 A3008 RMK A01 T01390130  RH  094%=      5-min Rain = 0
KPD1 161202Z 25001KT 14/13 A3008 RMK A01 T01390130  RH  094%=      5-min Rain = 0
KPD1 161203Z 25001KT 14/13 A3008 RMK A01 T01400131  RH  094%=      5-min Rain = 0
KPD1 161204Z 25001KT 14/13 A3008 RMK A01 T01400131  RH  094%=      5-min Rain = 0
KPD1 161205Z 25001KT 14/13 A3008 RMK A01 T01410132  RH  094%=      5-min Rain = 0
KPD1 161206Z 25000KT 14/13 A3008 RMK A01 T01420133  RH  094%=      5-min Rain = 0
KPD1 161207Z 00000KT 14/13 A3008 RMK A01 T01420133  RH  094%=      5-min Rain = 0
KPD1 161208Z 00000KT 14/13 A3008 RMK A01 T01430134  RH  094%=      5-min Rain = 0
KPD1 161209Z 00000KT 14/13 A3008 RMK A01 T01430134  RH  094%=      5-min Rain = 0
KPD1 161210Z 00000KT 14/13 A3008 RMK A01 T01430134  RH  094%=      5-min Rain = 0
KPD1 161211Z 00000KT 14/14 A3008 RMK A01 T01440135  RH  094%=      5-min Rain = 0
KPD1 161212Z 00000KT 14/14 A3009 RMK A01 T01440135  RH  094%=      5-min Rain = 0
KPD1 161213Z 00000KT 15/14 A3009 RMK A01 T01450136  RH  094%=      5-min Rain = 0
KPD1 161214Z 00000KT 15/14 A3009 RMK A01 T01450136  RH  094%=      5-min Rain = 0
KPD1 161215Z 00000KT 15/14 A3009 RMK A01 T01460137  RH  094%=      5-min Rain = 0
KPD1 161216Z 00000KT 15/14 A3009 RMK A01 T01470137  RH  094%=      5-min Rain = 0
KPD1 161217Z 00000KT 15/14 A3009 RMK A01 T01470138  RH  094%=      5-min Rain = 0
KPD1 161218Z 00000KT 15/14 A3009 RMK A01 T01480137  RH  093%=      5-min Rain = 0
KPD1 161219Z 00000KT 15/14 A3009 RMK A01 T01480137  RH  093%=      5-min Rain = 0
KPD1 161220Z 00000KT 15/14 A3009 RMK A01 T01490137  RH  093%=      5-min Rain = 0
KPD1 161221Z 00000KT 15/14 A3009 RMK A01 T01490138  RH  093%=      5-min Rain = 0
KPD1 161222Z 00000KT 15/14 A3009 RMK A01 T01500138  RH  093%=      5-min Rain = 0
KPD1 161223Z 00000KT 15/14 A3009 RMK A01 T01500138  RH  093%=      5-min Rain = 0
KPD1 161224Z 00000KT 15/14 A3009 RMK A01 T01500138  RH  092%=      5-min Rain = 0
KPD1 161225Z 00000KT 15/14 A301 RMK A01 T01510138  RH  092%=      5-min Rain = 0
KPD1 161226Z 00000KT 15/14 A301 RMK A01 T01510138  RH  092%=      5-min Rain = 0
KPD1 161227Z 00000KT 15/14 A301 RMK A01 T01510138  RH  092%=      5-min Rain = 0
KPD1 161228Z 00000KT 15/14 A301 RMK A01 T01510138  RH  092%=      5-min Rain = 0
KPD1 161229Z 00000KT 15/14 A301 RMK A01 T01510138  RH  092%=      5-min Rain = 0
KPD1 161230Z 00000KT 15/14 A301 RMK A01 T01510138  RH  092%=      5-min Rain = 0
KPD1 161231Z 00000KT 15/14 A301 RMK A01 T01520139  RH  092%=      5-min Rain = 0
KPD1 161232Z 00000KT 15/14 A301 RMK A01 T01520139  RH  092%=      5-min Rain = 0
KPD1 161233Z 00000KT 15/14 A301 RMK A01 T01520139  RH  092%=      5-min Rain = 0
KPD1 161234Z 00000KT 15/14 A301 RMK A01 T01530139  RH  092%=      5-min Rain = 0
KPD1 161235Z 00000KT 15/14 A301 RMK A01 T01530140  RH  092%=      5-min Rain = 0
KPD1 161236Z 21000KT 15/14 A301 RMK A01 T01540140  RH  092%=      5-min Rain = 0
KPD1 161237Z 21000KT 15/14 A301 RMK A01 T01540140  RH  092%=      5-min Rain = 0
KPD1 161238Z 21000KT 15/14 A301 RMK A01 T01540140  RH  092%=      5-min Rain = 0
KPD1 161239Z 21001KT 15/14 A301 RMK A01 T01540140  RH  091%=      5-min Rain = 0
KPD1 161240Z 21001KT 15/14 A301 RMK A01 T01540140  RH  091%=      5-min Rain = 0
KPD1 161241Z 21001KT 16/14 A301 RMK A01 T01550140  RH  091%=      5-min Rain = 0
KPD1 161242Z 21000KT 16/14 A301 RMK A01 T01550141  RH  091%=      5-min Rain = 0
KPD1 161243Z 00000KT 16/14 A301 RMK A01 T01550141  RH  091%=      5-min Rain = 0
KPD1 161244Z 00000KT 16/14 A301 RMK A01 T01560141  RH  091%=      5-min Rain = 0
KPD1 161245Z 00000KT 16/14 A301 RMK A01 T01560139  RH  090%=      5-min Rain = 0
KPD1 161246Z 00000KT 16/14 A301 RMK A01 T01560139  RH  089%=      5-min Rain = 0
KPD1 161247Z 00000KT 16/14 A301 RMK A01 T01560138  RH  089%=      5-min Rain = 0
KPD1 161248Z 00000KT 16/14 A301 RMK A01 T01570139  RH  089%=      5-min Rain = 0
KPD1 161249Z 29000KT 16/14 A301 RMK A01 T01570138  RH  088%=      5-min Rain = 0
KPD1 161250Z 00000KT 16/14 A301 RMK A01 T01580137  RH  088%=      5-min Rain = 0
KPD1 161251Z 33000KT 16/14 A301 RMK A01 T01580136  RH  087%=      5-min Rain = 0
KPD1 161252Z 33000KT 16/14 A301 RMK A01 T01580136  RH  087%=      5-min Rain = 0
KPD1 161253Z 33000KT 16/14 A301 RMK A01 T01580135  RH  086%=      5-min Rain = 0
KPD1 161254Z 33001KT 16/14 A301 RMK A01 T01580135  RH  086%=      5-min Rain = 0
KPD1 161255Z 33001KT 16/14 A301 RMK A01 T01590135  RH  086%=      5-min Rain = 0
KPD1 161256Z 33000KT 16/14 A301 RMK A01 T01600136  RH  086%=      5-min Rain = 0
KPD1 161257Z 33000KT 16/14 A301 RMK A01 T01600137  RH  086%=      5-min Rain = 0
KPD1 161258Z 33001KT 16/14 A301 RMK A01 T01610137  RH  086%=      5-min Rain = 0
KPD1 161259Z 33001KT 16/14 A301 RMK A01 T01610136  RH  085%=      5-min Rain = 0
KPD1 161300Z 33002KT 16/14 A301 RMK A01 T01620136  RH  085%=      5-min Rain = 0
KPD1 161301Z 35002KT 16/14 A301 RMK A01 T01630136  RH  084%=      5-min Rain = 0
KPD1 161302Z 34003KT 16/14 A301 RMK A01 T01640136  RH  084%=      5-min Rain = 0
KPD1 161303Z 33002KT 16/14 A301 RMK A01 T01640136  RH  084%=      5-min Rain = 0
KPD1 161304Z 33002KT 16/14 A301 RMK A01 T01640136  RH  084%=      5-min Rain = 0
KPD1 161305Z 34002KT 17/14 A301 RMK A01 T01650138  RH  084%=      5-min Rain = 0
KPD1 161306Z 34002KT 17/14 A301 RMK A01 T01650138  RH  084%=      5-min Rain = 0
KPD1 161307Z 33002KT 17/14 A301 RMK A01 T01660138  RH  084%=      5-min Rain = 0
KPD1 161308Z 31002KT 17/14 A301 RMK A01 T01660139  RH  084%=      5-min Rain = 0
KPD1 161309Z 31002KT 17/14 A301 RMK A01 T01670139  RH  083%=      5-min Rain = 0
KPD1 161310Z 30002KT 17/14 A301 RMK A01 T01680139  RH  083%=      5-min Rain = 0
KPD1 161311Z 26001KT 17/14 A301 RMK A01 T01690139  RH  083%=      5-min Rain = 0
KPD1 161312Z 25001KT 17/14 A301 RMK A01 T01690140  RH  083%=      5-min Rain = 0
KPD1 161313Z 22001KT 17/14 A301 RMK A01 T01710141  RH  083%=      5-min Rain = 0
KPD1 161314Z 22001KT 17/14 A301 RMK A01 T01720141  RH  082%=      5-min Rain = 0
KPD1 161315Z 21001KT 17/14 A301 RMK A01 T01730141  RH  081%=      5-min Rain = 0
KPD1 161316Z 21001KT 18/14 A301 RMK A01 T01750143  RH  081%=      5-min Rain = 0
KPD1 161317Z 21002KT 18/14 A301 RMK A01 T01760142  RH  080%=      5-min Rain = 0
KPD1 161318Z 20004KT 18/14 A301 RMK A01 T01770142  RH  080%=      5-min Rain = 0
KPD1 161319Z 19004KT 18/14 A301 RMK A01 T01780140  RH  078%=      5-min Rain = 0
KPD1 161320Z 19005KT 18/14 A301 RMK A01 T01800140  RH  078%=      5-min Rain = 0
KPD1 161321Z 17003KT 18/14 A301 RMK A01 T01810140  RH  077%=      5-min Rain = 0
KPD1 161322Z 17002KT 18/14 A301 RMK A01 T01820139  RH  076%=      5-min Rain = 0
KPD1 161323Z 16001KT 18/14 A301 RMK A01 T01830138  RH  075%=      5-min Rain = 0
KPD1 161324Z 18001KT 18/14 A301 RMK A01 T01840137  RH  074%=      5-min Rain = 0
KPD1 161325Z 19004KT 18/14 A301 RMK A01 T01840135  RH  073%=      5-min Rain = 0
KPD1 161326Z 17003KT 19/13 A301 RMK A01 T01850133  RH  072%=      5-min Rain = 0
KPD1 161327Z 16003KT 19/13 A301 RMK A01 T01860134  RH  072%=      5-min Rain = 0
KPD1 161328Z 17003KT 19/13 A301 RMK A01 T01870132  RH  070%=      5-min Rain = 0
KPD1 161329Z 19001KT 19/13 A301 RMK A01 T01870133  RH  070%=      5-min Rain = 0
KPD1 161330Z 18002KT 19/13 A301 RMK A01 T01880134  RH  071%=      5-min Rain = 0
KPD1 161331Z 17002KT 19/13 A301 RMK A01 T01880133  RH  070%=      5-min Rain = 0
KPD1 161332Z 19002KT 19/13 A301 RMK A01 T01890132  RH  070%=      5-min Rain = 0
KPD1 161333Z 17002KT 19/13 A301 RMK A01 T01890134  RH  070%=      5-min Rain = 0
KPD1 161334Z 18002KT 19/13 A301 RMK A01 T01900134  RH  070%=      5-min Rain = 0
KPD1 161335Z 19002KT 19/13 A301 RMK A01 T01910133  RH  069%=      5-min Rain = 0
KPD1 161336Z 21000KT 19/13 A301 RMK A01 T01910133  RH  069%=      5-min Rain = 0
KPD1 161337Z 22000KT 19/13 A301 RMK A01 T01910133  RH  069%=      5-min Rain = 0
KPD1 161338Z 18001KT 19/13 A3011 RMK A01 T01920134  RH  069%=      5-min Rain = 0
KPD1 161339Z 16002KT 19/14 A3011 RMK A01 T01930135  RH  069%=      5-min Rain = 0
KPD1 161340Z 15001KT 19/13 A3011 RMK A01 T01930132  RH  068%=      5-min Rain = 0
KPD1 161341Z 15002KT 19/13 A3011 RMK A01 T01930132  RH  068%=      5-min Rain = 0
KPD1 161342Z 15000KT 19/13 A3011 RMK A01 T01920133  RH  068%=      5-min Rain = 0
KPD1 161343Z 15001KT 19/13 A3011 RMK A01 T01920133  RH  069%=      5-min Rain = 0
KPD1 161344Z 14001KT 19/13 A3011 RMK A01 T01920134  RH  069%=      5-min Rain = 0
KPD1 161345Z 11001KT 19/13 A3011 RMK A01 T01910132  RH  068%=      5-min Rain = 0
KPD1 161346Z 12003KT 19/13 A3011 RMK A01 T01910130  RH  068%=      5-min Rain = 0
KPD1 161347Z 14002KT 19/13 A3011 RMK A01 T01910131  RH  068%=      5-min Rain = 0
KPD1 161348Z 13001KT 19/13 A3011 RMK A01 T01910128  RH  067%=      5-min Rain = 0
KPD1 161349Z 12001KT 19/13 A3011 RMK A01 T01910128  RH  067%=      5-min Rain = 0
KPD1 161350Z 11002KT 19/13 A3011 RMK A01 T01920130  RH  067%=      5-min Rain = 0
KPD1 161351Z 10000KT 19/13 A3011 RMK A01 T01930131  RH  068%=      5-min Rain = 0
KPD1 161352Z 09000KT 19/13 A3011 RMK A01 T01940132  RH  067%=      5-min Rain = 0
KPD1 161353Z 00000KT 19/13 A3011 RMK A01 T01940129  RH  066%=      5-min Rain = 0
KPD1 161354Z 14001KT 20/13 A3011 RMK A01 T01950130  RH  066%=      5-min Rain = 0
KPD1 161355Z 15000KT 20/13 A3011 RMK A01 T01960128  RH  065%=      5-min Rain = 0
KPD1 161356Z 11001KT 20/13 A3011 RMK A01 T01970127  RH  064%=      5-min Rain = 0
KPD1 161357Z 15001KT 20/13 A3011 RMK A01 T01980128  RH  064%=      5-min Rain = 0
KPD1 161358Z 15003KT 20/13 A3011 RMK A01 T01990129  RH  064%=      5-min Rain = 0
KPD1 161359Z 18002KT 20/13 A3011 RMK A01 T02000129  RH  064%=      5-min Rain = 0
KPD1 161400Z 16003KT 20/13 A3011 RMK A01 T02010127  RH  062%=      5-min Rain = 0
KPD1 161401Z 14003KT 20/13 A3011 RMK A01 T02010126  RH  062%=      5-min Rain = 0
KPD1 161402Z 18003KT 20/13 A3011 RMK A01 T02010129  RH  063%=      5-min Rain = 0
KPD1 161403Z 20003KT 20/13 A3011 RMK A01 T02020131  RH  063%=      5-min Rain = 0
KPD1 161404Z 21002KT 20/13 A3011 RMK A01 T02020130  RH  063%=      5-min Rain = 0
KPD1 161405Z 19003KT 20/13 A3011 RMK A01 T02010129  RH  063%=      5-min Rain = 0
KPD1 161406Z 20004KT 20/13 A3011 RMK A01 T02010127  RH  063%=      5-min Rain = 0
KPD1 161407Z 19003KT 20/13 A3011 RMK A01 T02000128  RH  063%=      5-min Rain = 0
KPD1 161408Z 16003KT 20/13 A3011 RMK A01 T02020132  RH  064%=      5-min Rain = 0
KPD1 161409Z 17004KT 20/13 A3011 RMK A01 T02040128  RH  062%=      5-min Rain = 0
KPD1 161410Z 16004KT 21/13 A3011 RMK A01 T02060128  RH  061%=      5-min Rain = 0
KPD1 161411Z 17004KT 21/13 A3011 RMK A01 T02070127  RH  060%=      5-min Rain = 0
KPD1 161412Z 17003KT 21/13 A3011 RMK A01 T02070126  RH  060%=      5-min Rain = 0
KPD1 161413Z 16004KT 21/13 A3011 RMK A01 T02070127  RH  060%=      5-min Rain = 0
KPD1 161414Z 16003KT 21/13 A3011 RMK A01 T02080126  RH  059%=      5-min Rain = 0
KPD1 161415Z 15002KT 21/13 A3011 RMK A01 T02080126  RH  059%=      5-min Rain = 0
KPD1 161416Z 18004KT 21/13 A3011 RMK A01 T02090127  RH  059%=      5-min Rain = 0
KPD1 161417Z 17006KT 21/12 A3011 RMK A01 T02100124  RH  058%=      5-min Rain = 0
KPD1 161418Z 18006KT 21/12 A3011 RMK A01 T02100124  RH  058%=      5-min Rain = 0
KPD1 161419Z 17006KT 21/13 A3011 RMK A01 T02110125  RH  058%=      5-min Rain = 0
KPD1 161420Z 16006KT 21/12 A3011 RMK A01 T02100123  RH  058%=      5-min Rain = 0
KPD1 161421Z 16005KT 21/12 A3011 RMK A01 T02090124  RH  058%=      5-min Rain = 0
KPD1 161422Z 16005KT 21/13 A3011 RMK A01 T02090125  RH  059%=      5-min Rain = 0
KPD1 161423Z 16005KT 21/13 A3011 RMK A01 T02090125  RH  059%=      5-min Rain = 0
KPD1 161424Z 16004KT 21/13 A3011 RMK A01 T02080125  RH  059%=      5-min Rain = 0
KPD1 161425Z 16004KT 21/13 A3011 RMK A01 T02080127  RH  060%=      5-min Rain = 0
KPD1 161426Z 15005KT 21/13 A3011 RMK A01 T02080126  RH  059%=      5-min Rain = 0
KPD1 161427Z 16004KT 21/13 A3011 RMK A01 T02080127  RH  060%=      5-min Rain = 0
KPD1 161428Z 15005KT 21/13 A3011 RMK A01 T02090128  RH  060%=      5-min Rain = 0
KPD1 161429Z 15005KT 21/13 A3011 RMK A01 T02100128  RH  059%=      5-min Rain = 0
KPD1 161430Z 14004KT 21/13 A3011 RMK A01 T02100128  RH  059%=      5-min Rain = 0
KPD1 161431Z 16004KT 21/13 A3011 RMK A01 T02100128  RH  059%=      5-min Rain = 0
KPD1 161432Z 16006KT 21/13 A3011 RMK A01 T02090127  RH  059%=      5-min Rain = 0
KPD1 161433Z 15004KT 21/13 A3011 RMK A01 T02090126  RH  059%=      5-min Rain = 0
KPD1 161434Z 16003KT 21/13 A3011 RMK A01 T02100129  RH  060%=      5-min Rain = 0
KPD1 161435Z 17006KT 21/13 A3011 RMK A01 T02110129  RH  059%=      5-min Rain = 0
KPD1 161436Z 16005KT 21/13 A3011 RMK A01 T02120127  RH  058%=      5-min Rain = 0
KPD1 161437Z 17004KT 21/13 A3011 RMK A01 T02120127  RH  058%=      5-min Rain = 0
KPD1 161438Z 17005KT 21/13 A3011 RMK A01 T02120126  RH  058%=      5-min Rain = 0
KPD1 161439Z 15006KT 21/13 A3011 RMK A01 T02120127  RH  058%=      5-min Rain = 0
KPD1 161440Z 17006KT 21/13 A3011 RMK A01 T02120127  RH  058%=      5-min Rain = 0
KPD1 161441Z 17006KT 21/13 A3011 RMK A01 T02120126  RH  058%=      5-min Rain = 0
KPD1 161442Z 17005KT 21/13 A3011 RMK A01 T02130127  RH  058%=      5-min Rain = 0
KPD1 161443Z 14006KT 21/13 A3011 RMK A01 T02130126  RH  057%=      5-min Rain = 0
KPD1 161444Z 16005KT 21/13 A3011 RMK A01 T02140126  RH  057%=      5-min Rain = 0
KPD1 161445Z 16004KT 22/13 A3011 RMK A01 T02150128  RH  058%=      5-min Rain = 0
KPD1 161446Z 18006KT 22/13 A3011 RMK A01 T02170130  RH  057%=      5-min Rain = 0
KPD1 161447Z 18007KT 22/13 A3011 RMK A01 T02190128  RH  056%=      5-min Rain = 0
KPD1 161448Z 17008KT 22/13 A3011 RMK A01 T02190128  RH  056%=      5-min Rain = 0
KPD1 161449Z 17006KT 22/13 A3011 RMK A01 T02190127  RH  056%=      5-min Rain = 0
KPD1 161450Z 17006KT 22/13 A3011 RMK A01 T02180127  RH  056%=      5-min Rain = 0
KPD1 161451Z 16005KT 22/13 A3011 RMK A01 T02170127  RH  057%=      5-min Rain = 0
KPD1 161452Z 16007KT 22/13 A3011 RMK A01 T02160127  RH  057%=      5-min Rain = 0
KPD1 161453Z 19009KT 22/13 A3011 RMK A01 T02170127  RH  057%=      5-min Rain = 0
KPD1 161454Z 19014KT 22/13 A3011 RMK A01 T02170128  RH  057%=      5-min Rain = 0
KPD1 161455Z 19011KT 22/13 A3011 RMK A01 T02170126  RH  056%=      5-min Rain = 0
KPD1 161456Z 18011KT 22/13 A3011 RMK A01 T02150126  RH  057%=      5-min Rain = 0
KPD1 161457Z 19008KT 21/13 A3011 RMK A01 T02140126  RH  057%=      5-min Rain = 0
KPD1 161458Z 20011KT 22/13 A3011 RMK A01 T02150127  RH  057%=      5-min Rain = 0
KPD1 161459Z 21010KT 22/13 A3011 RMK A01 T02160126  RH  057%=      5-min Rain = 0
KPD1 161500Z 20008KT 22/13 A3011 RMK A01 T02150127  RH  057%=      5-min Rain = 0
KPD1 161501Z 20010KT 22/13 A3011 RMK A01 T02170128  RH  057%=      5-min Rain = 0
KPD1 161502Z 20010KT 22/13 A3011 RMK A01 T02190128  RH  056%=      5-min Rain = 0
KPD1 161503Z 20012KT 22/13 A3011 RMK A01 T02200128  RH  056%=      5-min Rain = 0
KPD1 161504Z 19007KT 22/13 A3011 RMK A01 T02190128  RH  056%=      5-min Rain = 0
KPD1 161505Z 18007KT 22/13 A3011 RMK A01 T02210129  RH  056%=      5-min Rain = 0
KPD1 161506Z 18008KT 22/13 A3011 RMK A01 T02230129  RH  055%=      5-min Rain = 0
KPD1 161507Z 18006KT 23/13 A3011 RMK A01 T02250130  RH  055%=      5-min Rain = 0
KPD1 161508Z 16010KT 23/13 A3011 RMK A01 T02260129  RH  054%=      5-min Rain = 0
KPD1 161509Z 18012KT 23/13 A3011 RMK A01 T02260128  RH  054%=      5-min Rain = 0
KPD1 161510Z 18010G16KT 22/13 A3011 RMK A01 T02230128  RH  055%=      5-min Rain = 0
KPD1 161511Z 18008KT 22/13 A3011 RMK A01 T02220128  RH  055%=      5-min Rain = 0
KPD1 161512Z 18009KT 22/13 A3011 RMK A01 T02220129  RH  056%=      5-min Rain = 0
KPD1 161513Z 18008KT 22/13 A3011 RMK A01 T02210128  RH  056%=      5-min Rain = 0
KPD1 161514Z 17007KT 22/13 A3011 RMK A01 T02220129  RH  056%=      5-min Rain = 0
KPD1 161515Z 17009KT 22/13 A3011 RMK A01 T02220130  RH  056%=      5-min Rain = 0
KPD1 161516Z 17009KT 22/13 A3011 RMK A01 T02230130  RH  056%=      5-min Rain = 0
KPD1 161517Z 17009KT 22/13 A3011 RMK A01 T02220130  RH  056%=      5-min Rain = 0
KPD1 161518Z 19010G15KT 22/13 A3011 RMK A01 T02220130  RH  056%=      5-min Rain = 0
KPD1 161519Z 17009KT 22/13 A3011 RMK A01 T02210130  RH  057%=      5-min Rain = 0
KPD1 161520Z 19011G16KT 22/13 A3011 RMK A01 T02210130  RH  056%=      5-min Rain = 0
KPD1 161521Z 20010KT 22/13 A3011 RMK A01 T02200130  RH  057%=      5-min Rain = 0
KPD1 161522Z 17008KT 22/13 A3011 RMK A01 T02180130  RH  057%=      5-min Rain = 0
KPD1 161523Z 19008G13KT 22/13 A3011 RMK A01 T02180130  RH  057%=      5-min Rain = 0
KPD1 161524Z 19007KT 22/13 A3011 RMK A01 T02190130  RH  057%=      5-min Rain = 0
KPD1 161525Z 19007KT 22/13 A3011 RMK A01 T02190131  RH  057%=      5-min Rain = 0
KPD1 161526Z 17007KT 22/13 A3011 RMK A01 T02180131  RH  058%=      5-min Rain = 0
KPD1 161527Z 17010KT 22/13 A3012 RMK A01 T02180130  RH  057%=      5-min Rain = 0
KPD1 161528Z 18010KT 22/13 A3012 RMK A01 T02180132  RH  058%=      5-min Rain = 0
KPD1 161529Z 20011KT 22/13 A3012 RMK A01 T02180131  RH  058%=      5-min Rain = 0
KPD1 161530Z 20012KT 22/13 A3012 RMK A01 T02180131  RH  058%=      5-min Rain = 0
KPD1 161531Z 21010KT 22/13 A3012 RMK A01 T02170131  RH  058%=      5-min Rain = 0
KPD1 161532Z 21009KT 22/13 A3012 RMK A01 T02160131  RH  058%=      5-min Rain = 0
KPD1 161533Z 20008KT 22/13 A3012 RMK A01 T02160131  RH  059%=      5-min Rain = 0
KPD1 161534Z 18008KT 22/13 A3012 RMK A01 T02160132  RH  059%=      5-min Rain = 0
KPD1 161535Z 19009G14KT 22/13 A3012 RMK A01 T02170132  RH  058%=      5-min Rain = 0
KPD1 161536Z 18010KT 22/13 A3012 RMK A01 T02180132  RH  058%=      5-min Rain = 0
KPD1 161537Z 18009KT 22/13 A3012 RMK A01 T02180132  RH  058%=      5-min Rain = 0
KPD1 161538Z 17014G20KT 22/13 A3012 RMK A01 T02170132  RH  058%=      5-min Rain = 0
KPD1 161539Z 18012G18KT 22/13 A3012 RMK A01 T02160131  RH  058%=      5-min Rain = 0
KPD1 161540Z 18009KT 22/13 A3012 RMK A01 T02150131  RH  059%=      5-min Rain = 0
KPD1 161541Z 19010KT 21/13 A3012 RMK A01 T02140131  RH  059%=      5-min Rain = 0
KPD1 161542Z 19011KT 21/13 A3012 RMK A01 T02140132  RH  059%=      5-min Rain = 0
KPD1 161543Z 18006KT 22/13 A3012 RMK A01 T02150132  RH  059%=      5-min Rain = 0
KPD1 161544Z 21009KT 22/13 A3012 RMK A01 T02150132  RH  059%=      5-min Rain = 0
KPD1 161545Z 20009KT 22/13 A3012 RMK A01 T02150132  RH  059%=      5-min Rain = 0
KPD1 161546Z 20008KT 22/13 A3012 RMK A01 T02150132  RH  059%=      5-min Rain = 0
KPD1 161547Z 19010KT 22/13 A3012 RMK A01 T02150132  RH  059%=      5-min Rain = 0
KPD1 161548Z 18005KT 21/13 A3012 RMK A01 T02140132  RH  059%=      5-min Rain = 0
KPD1 161549Z 15007KT 22/13 A3012 RMK A01 T02150132  RH  059%=      5-min Rain = 0
KPD1 161550Z 17009KT 22/13 A3012 RMK A01 T02150132  RH  059%=      5-min Rain = 0
KPD1 161551Z 15011KT 22/13 A3012 RMK A01 T02150132  RH  059%=      5-min Rain = 0
KPD1 161552Z 16009KT 21/13 A3012 RMK A01 T02140131  RH  059%=      5-min Rain = 0
KPD1 161553Z 16009KT 21/13 A3012 RMK A01 T02140132  RH  059%=      5-min Rain = 0
KPD1 161554Z 17012KT 21/13 A3012 RMK A01 T02130131  RH  059%=      5-min Rain = 0
KPD1 161555Z 19008KT 21/13 A3012 RMK A01 T02130131  RH  060%=      5-min Rain = 0
KPD1 161556Z 19007KT 21/13 A3012 RMK A01 T02130132  RH  060%=      5-min Rain = 0
KPD1 161557Z 18008KT 21/13 A3012 RMK A01 T02130132  RH  060%=      5-min Rain = 0
KPD1 161558Z 17011G17KT 21/13 A3012 RMK A01 T02130132  RH  060%=      5-min Rain = 0
KPD1 161559Z 17014KT 21/13 A3012 RMK A01 T02130132  RH  060%=      5-min Rain = 0
KPD1 161600Z 17013KT 21/13 A3012 RMK A01 T02120132  RH  060%=      5-min Rain = 0
KPD1 161601Z 18011KT 21/13 A3012 RMK A01 T02120132  RH  060%=      5-min Rain = 0
KPD1 161602Z 17011KT 21/13 A3012 RMK A01 T02120132  RH  060%=      5-min Rain = 0
KPD1 161603Z 19008KT 21/13 A3012 RMK A01 T02110132  RH  060%=      5-min Rain = 0
KPD1 161604Z 19012KT 21/13 A3012 RMK A01 T02120132  RH  060%=      5-min Rain = 0
KPD1 161605Z 19008KT 21/13 A3012 RMK A01 T02120132  RH  060%=      5-min Rain = 0
KPD1 161606Z 20011KT 21/13 A3012 RMK A01 T02120132  RH  060%=      5-min Rain = 0
KPD1 161607Z 19010G16KT 21/13 A3012 RMK A01 T02120133  RH  060%=      5-min Rain = 0
KPD1 161608Z 19011KT 21/13 A3012 RMK A01 T02120132  RH  060%=      5-min Rain = 0
KPD1 161609Z 20008KT 21/13 A3012 RMK A01 T02130133  RH  060%=      5-min Rain = 0
KPD1 161610Z 19009KT 21/13 A3012 RMK A01 T02130134  RH  060%=      5-min Rain = 0
KPD1 161611Z 18010KT 21/13 A3012 RMK A01 T02140133  RH  060%=      5-min Rain = 0
KPD1 161612Z 18011KT 22/13 A3012 RMK A01 T02150134  RH  060%=      5-min Rain = 0
KPD1 161613Z 18008KT 22/13 A3011 RMK A01 T02150134  RH  060%=      5-min Rain = 0
KPD1 161614Z 18011KT 22/13 A3011 RMK A01 T02150134  RH  060%=      5-min Rain = 0
KPD1 161615Z 19008KT 22/13 A3011 RMK A01 T02150134  RH  060%=      5-min Rain = 0
KPD1 161616Z 19008KT 22/14 A3011 RMK A01 T02160135  RH  060%=      5-min Rain = 0
KPD1 161617Z 17008G13KT 22/14 A3011 RMK A01 T02170135  RH  060%=      5-min Rain = 0
KPD1 161618Z 17010KT 22/14 A3011 RMK A01 T02190136  RH  059%=      5-min Rain = 0
KPD1 161619Z 17011KT 22/14 A3011 RMK A01 T02190135  RH  059%=      5-min Rain = 0
KPD1 161620Z 18010KT 22/14 A3011 RMK A01 T02200135  RH  058%=      5-min Rain = 0
KPD1 161621Z 18009KT 22/14 A3011 RMK A01 T02200135  RH  059%=      5-min Rain = 0
KPD1 161622Z 18008KT 22/14 A3011 RMK A01 T02200135  RH  059%=      5-min Rain = 0
KPD1 161623Z 18009KT 22/14 A3011 RMK A01 T02210135  RH  058%=      5-min Rain = 0
KPD1 161624Z 18012KT 22/14 A3011 RMK A01 T02210136  RH  058%=      5-min Rain = 0
KPD1 161625Z 17012KT 22/14 A3011 RMK A01 T02210137  RH  059%=      5-min Rain = 0
KPD1 161626Z 19012KT 22/14 A3011 RMK A01 T02220137  RH  059%=      5-min Rain = 0
KPD1 161627Z 19011KT 22/14 A3011 RMK A01 T02220138  RH  059%=      5-min Rain = 0
KPD1 161628Z 18012KT 22/14 A3011 RMK A01 T02220138  RH  059%=      5-min Rain = 0
KPD1 161629Z 18010KT 22/14 A3011 RMK A01 T02230138  RH  059%=      5-min Rain = 0
KPD1 161630Z 18010KT 22/14 A3011 RMK A01 T02240139  RH  059%=      5-min Rain = 0
KPD1 161631Z 18011KT 22/14 A3011 RMK A01 T02240139  RH  059%=      5-min Rain = 0
KPD1 161632Z 19011G16KT 22/14 A301 RMK A01 T02240140  RH  059%=      5-min Rain = 0
KPD1 161633Z 18013KT 23/14 A301 RMK A01 T02260141  RH  059%=      5-min Rain = 0
KPD1 161634Z 19011KT 23/14 A301 RMK A01 T02270141  RH  058%=      5-min Rain = 0
KPD1 161635Z 18011KT 23/14 A301 RMK A01 T02270141  RH  058%=      5-min Rain = 0
KPD1 161636Z 18011KT 23/14 A301 RMK A01 T02290141  RH  058%=      5-min Rain = 0
KPD1 161637Z 18011G16KT 23/14 A301 RMK A01 T02290141  RH  058%=      5-min Rain = 0
KPD1 161638Z 18007G12KT 23/14 A301 RMK A01 T02280141  RH  058%=      5-min Rain = 0
KPD1 161639Z 18007G12KT 23/14 A301 RMK A01 T02290143  RH  058%=      5-min Rain = 0
KPD1 161640Z 17011KT 23/14 A301 RMK A01 T02320143  RH  057%=      5-min Rain = 0
KPD1 161641Z 16010KT 23/14 A301 RMK A01 T02330143  RH  057%=      5-min Rain = 0
KPD1 161642Z 16008G13KT 23/14 A301 RMK A01 T02330143  RH  057%=      5-min Rain = 0
KPD1 161643Z 18013KT 24/15 A301 RMK A01 T02360145  RH  057%=      5-min Rain = 0
KPD1 161644Z 20011KT 24/15 A301 RMK A01 T02380146  RH  056%=      5-min Rain = 0
KPD1 161645Z 20015KT 24/15 A301 RMK A01 T02400146  RH  056%=      5-min Rain = 0
KPD1 161646Z 19015G20KT 24/15 A301 RMK A01 T02410146  RH  055%=      5-min Rain = 0
KPD1 161647Z 18012G17KT 24/15 A301 RMK A01 T02420146  RH  055%=      5-min Rain = 0
KPD1 161648Z 18011KT 24/15 A301 RMK A01 T02420146  RH  055%=      5-min Rain = 0
KPD1 161649Z 19010KT 24/15 A301 RMK A01 T02430147  RH  055%=      5-min Rain = 0
KPD1 161650Z 19012G17KT 25/15 A301 RMK A01 T02460150  RH  055%=      5-min Rain = 0
KPD1 161651Z 19013KT 25/15 A301 RMK A01 T02480148  RH  054%=      5-min Rain = 0
KPD1 161652Z 19014KT 25/15 A301 RMK A01 T02460147  RH  054%=      5-min Rain = 0
KPD1 161653Z 19013KT 24/15 A301 RMK A01 T02440146  RH  054%=      5-min Rain = 0
KPD1 161654Z 18013KT 24/15 A301 RMK A01 T02400146  RH  055%=      5-min Rain = 0
KPD1 161655Z 18012KT 24/15 A301 RMK A01 T02400146  RH  056%=      5-min Rain = 0
KPD1 161656Z 17008KT 24/15 A301 RMK A01 T02390146  RH  056%=      5-min Rain = 0
KPD1 161657Z 18008G15KT 24/15 A301 RMK A01 T02400148  RH  056%=      5-min Rain = 0
KPD1 161658Z 19008KT 24/15 A301 RMK A01 T02420147  RH  055%=      5-min Rain = 0
KPD1 161659Z 16010KT 24/15 A301 RMK A01 T02430148  RH  055%=      5-min Rain = 0
KPD1 161700Z 16011KT 25/15 A301 RMK A01 T02450146  RH  054%=      5-min Rain = 0
KPD1 161701Z 17012KT 25/15 A301 RMK A01 T02450145  RH  054%=      5-min Rain = 0
KPD1 161702Z 17012KT 24/14 A301 RMK A01 T02440144  RH  054%=      5-min Rain = 0
KPD1 161703Z 17006KT 24/14 A301 RMK A01 T02410144  RH  054%=      5-min Rain = 0
KPD1 161704Z 18008G13KT 24/15 A301 RMK A01 T02410145  RH  055%=      5-min Rain = 0
KPD1 161705Z 18013KT 24/15 A301 RMK A01 T02440145  RH  054%=      5-min Rain = 0
KPD1 161706Z 18013KT 24/14 A301 RMK A01 T02440144  RH  053%=      5-min Rain = 0
KPD1 161707Z 17008KT 24/14 A3009 RMK A01 T02430143  RH  053%=      5-min Rain = 0
KPD1 161708Z 18009KT 24/15 A301 RMK A01 T02440146  RH  054%=      5-min Rain = 0
KPD1 161709Z 19014KT 25/15 A301 RMK A01 T02480145  RH  053%=      5-min Rain = 0
KPD1 161710Z 19008KT 25/15 A301 RMK A01 T02510146  RH  052%=      5-min Rain = 0
KPD1 161711Z 19007KT 25/15 A3009 RMK A01 T02530146  RH  051%=      5-min Rain = 0
KPD1 161712Z 20010KT 25/14 A3009 RMK A01 T02530144  RH  051%=      5-min Rain = 0
KPD1 161713Z 18011KT 25/14 A3009 RMK A01 T02490144  RH  052%=      5-min Rain = 0
KPD1 161714Z 19009G14KT 25/14 A301 RMK A01 T02480144  RH  052%=      5-min Rain = 0
KPD1 161715Z 20013KT 25/14 A3009 RMK A01 T02490144  RH  052%=      5-min Rain = 0
KPD1 161716Z 20011KT 25/14 A3009 RMK A01 T02470143  RH  052%=      5-min Rain = 0
KPD1 161717Z 20014G19KT 25/14 A3009 RMK A01 T02450143  RH  053%=      5-min Rain = 0
KPD1 161718Z 19016KT 25/14 A3009 RMK A01 T02450143  RH  053%=      5-min Rain = 0
KPD1 161719Z 19013G18KT 25/15 A3009 RMK A01 T02460145  RH  053%=      5-min Rain = 0
KPD1 161720Z 19010KT 25/15 A3009 RMK A01 T02500147  RH  053%=      5-min Rain = 0
KPD1 161721Z 18010KT 25/15 A3009 RMK A01 T02530147  RH  052%=      5-min Rain = 0
KPD1 161722Z 17012G18KT 25/15 A3009 RMK A01 T02540146  RH  051%=      5-min Rain = 0
KPD1 161723Z 17013KT 26/15 A3009 RMK A01 T02550146  RH  051%=      5-min Rain = 0
KPD1 161724Z 17011G17KT 26/15 A3009 RMK A01 T02550145  RH  051%=      5-min Rain = 0
KPD1 161725Z 17012G17KT 25/14 A3009 RMK A01 T02530144  RH  051%=      5-min Rain = 0
KPD1 161726Z 16013G18KT 25/14 A3009 RMK A01 T02510144  RH  051%=      5-min Rain = 0
KPD1 161727Z 16012G17KT 25/14 A3009 RMK A01 T02510144  RH  052%=      5-min Rain = 0
KPD1 161728Z 18011G16KT 25/15 A3009 RMK A01 T02520145  RH  052%=      5-min Rain = 0
KPD1 161729Z 19007KT 25/15 A3009 RMK A01 T02530146  RH  052%=      5-min Rain = 0
KPD1 161730Z 18011G16KT 26/15 A3009 RMK A01 T02550147  RH  051%=      5-min Rain = 0
KPD1 161731Z 18011G17KT 26/15 A3009 RMK A01 T02560145  RH  050%=      5-min Rain = 0
KPD1 161732Z 19011G17KT 26/15 A3009 RMK A01 T02570147  RH  050%=      5-min Rain = 0
KPD1 161733Z 19012G18KT 26/15 A3009 RMK A01 T02620150  RH  050%=      5-min Rain = 0
KPD1 161734Z 19012G17KT 27/15 A3009 RMK A01 T02670148  RH  048%=      5-min Rain = 0
KPD1 161735Z 20013KT 27/15 A3009 RMK A01 T02680148  RH  048%=      5-min Rain = 0
KPD1 161736Z 20013KT 27/15 A3009 RMK A01 T02660146  RH  048%=      5-min Rain = 0
KPD1 161737Z 20011G17KT 26/14 A3009 RMK A01 T02610144  RH  049%=      5-min Rain = 0
KPD1 161738Z 19014KT 26/14 A3009 RMK A01 T02570143  RH  049%=      5-min Rain = 0
KPD1 161739Z 20014KT 25/14 A3008 RMK A01 T02530143  RH  050%=      5-min Rain = 0
KPD1 161740Z 20011KT 25/14 A3008 RMK A01 T02510143  RH  051%=      5-min Rain = 0
KPD1 161741Z 20011KT 25/14 A3008 RMK A01 T02510144  RH  051%=      5-min Rain = 0
KPD1 161742Z 18010G15KT 26/15 A3008 RMK A01 T02550146  RH  051%=      5-min Rain = 0
KPD1 161743Z 17007KT 26/15 A3008 RMK A01 T02610149  RH  050%=      5-min Rain = 0
KPD1 161744Z 18014KT 27/15 A3008 RMK A01 T02650148  RH  048%=      5-min Rain = 0
KPD1 161745Z 17012KT 26/15 A3008 RMK A01 T02640146  RH  048%=      5-min Rain = 0
KPD1 161746Z 17011G16KT 26/15 A3008 RMK A01 T02620146  RH  049%=      5-min Rain = 0
KPD1 161747Z 19013KT 26/15 A3008 RMK A01 T02630146  RH  049%=      5-min Rain = 0
KPD1 161748Z 17012KT 26/14 A3008 RMK A01 T02620144  RH  048%=      5-min Rain = 0
KPD1 161749Z 19013KT 26/14 A3008 RMK A01 T02560141  RH  049%=      5-min Rain = 0
KPD1 161750Z 17007KT 25/14 A3008 RMK A01 T02520141  RH  050%=      5-min Rain = 0
KPD1 161751Z 18009KT 25/14 A3008 RMK A01 T02510142  RH  051%=      5-min Rain = 0
KPD1 161752Z 19009KT 25/14 A3008 RMK A01 T02530143  RH  051%=      5-min Rain = 0
KPD1 161753Z 19008KT 25/14 A3008 RMK A01 T02540144  RH  050%=      5-min Rain = 0
KPD1 161754Z 19008G13KT 26/15 A3008 RMK A01 T02570145  RH  050%=      5-min Rain = 0
KPD1 161755Z 17011KT 26/15 A3008 RMK A01 T02600146  RH  049%=      5-min Rain = 0
KPD1 161756Z 18009KT 27/15 A3008 RMK A01 T02650147  RH  048%=      5-min Rain = 0
KPD1 161757Z 18007KT 27/15 A3008 RMK A01 T02700148  RH  047%=      5-min Rain = 0
KPD1 161758Z 18007KT 27/15 A3007 RMK A01 T02740148  RH  046%=      5-min Rain = 0
KPD1 161759Z 19010KT 28/15 A3007 RMK A01 T02760148  RH  045%=      5-min Rain = 0
KPD1 161800Z 17008KT 28/15 A3007 RMK A01 T02780149  RH  045%=      5-min Rain = 0
KPD1 161801Z 18011KT 28/15 A3007 RMK A01 T02840150  RH  044%=      5-min Rain = 0
KPD1 161802Z 19011KT 28/15 A3007 RMK A01 T02810146  RH  044%=      5-min Rain = 0
KPD1 161803Z 20009KT 27/15 A3007 RMK A01 T02740145  RH  045%=      5-min Rain = 0
KPD1 161804Z 22011KT 27/14 A3007 RMK A01 T02690144  RH  046%=      5-min Rain = 0
KPD1 161805Z 22011KT 27/14 A3007 RMK A01 T02650144  RH  047%=      5-min Rain = 0
KPD1 161806Z 21014G19KT 26/15 A3007 RMK A01 T02640145  RH  048%=      5-min Rain = 0
KPD1 161807Z 20013G19KT 27/15 A3007 RMK A01 T02670146  RH  047%=      5-min Rain = 0
KPD1 161808Z 21010KT 27/15 A3007 RMK A01 T02670145  RH  047%=      5-min Rain = 0
KPD1 161809Z 20011KT 27/14 A3007 RMK A01 T02670144  RH  047%=      5-min Rain = 0
KPD1 161810Z 19010KT 26/14 A3007 RMK A01 T02640144  RH  047%=      5-min Rain = 0
KPD1 161811Z 19011KT 26/14 A3007 RMK A01 T02620143  RH  048%=      5-min Rain = 0
KPD1 161812Z 19016KT 26/14 A3007 RMK A01 T02610144  RH  048%=      5-min Rain = 0
KPD1 161813Z 20012KT 26/14 A3007 RMK A01 T02610144  RH  049%=      5-min Rain = 0
KPD1 161814Z 19012KT 26/14 A3007 RMK A01 T02620144  RH  048%=      5-min Rain = 0
KPD1 161815Z 18012G17KT 27/15 A3007 RMK A01 T02650146  RH  048%=      5-min Rain = 0
KPD1 161816Z 17010KT 27/15 A3007 RMK A01 T02700146  RH  047%=      5-min Rain = 0
KPD1 161817Z 17010KT 27/15 A3007 RMK A01 T02720147  RH  046%=      5-min Rain = 0
KPD1 161818Z 19007KT 27/15 A3006 RMK A01 T02740147  RH  046%=      5-min Rain = 0
KPD1 161819Z 19008G13KT 28/15 A3006 RMK A01 T02760147  RH  045%=      5-min Rain = 0
KPD1 161820Z 20007G13KT 28/15 A3006 RMK A01 T02750145  RH  045%=      5-min Rain = 0
KPD1 161821Z 18010KT 27/15 A3006 RMK A01 T02730145  RH  045%=      5-min Rain = 0
KPD1 161822Z 19012KT 27/14 A3006 RMK A01 T02730144  RH  045%=      5-min Rain = 0
KPD1 161823Z 18012KT 27/14 A3006 RMK A01 T02730143  RH  045%=      5-min Rain = 0
KPD1 161824Z 17011KT 27/14 A3006 RMK A01 T02700141  RH  045%=      5-min Rain = 0
KPD1 161825Z 18010KT 27/14 A3006 RMK A01 T02670142  RH  046%=      5-min Rain = 0
KPD1 161826Z 20014G19KT 27/14 A3006 RMK A01 T02670144  RH  047%=      5-min Rain = 0
KPD1 161827Z 19015KT 27/14 A3006 RMK A01 T02690142  RH  046%=      5-min Rain = 0
KPD1 161828Z 19013KT 27/14 A3006 RMK A01 T02670140  RH  046%=      5-min Rain = 0
KPD1 161829Z 19013KT 27/14 A3006 RMK A01 T02680142  RH  046%=      5-min Rain = 0
KPD1 161830Z 19010KT 27/14 A3006 RMK A01 T02720143  RH  045%=      5-min Rain = 0
KPD1 161831Z 19011KT 28/15 A3006 RMK A01 T02780145  RH  044%=      5-min Rain = 0
KPD1 161832Z 18011KT 28/15 A3006 RMK A01 T02800146  RH  044%=      5-min Rain = 0
KPD1 161833Z 18012KT 28/15 A3006 RMK A01 T02820146  RH  043%=      5-min Rain = 0
KPD1 161834Z 17013G20KT 28/15 A3006 RMK A01 T02810145  RH  043%=      5-min Rain = 0
KPD1 161835Z 19015KT 28/14 A3006 RMK A01 T02780144  RH  044%=      5-min Rain = 0
KPD1 161836Z 18016KT 28/14 A3006 RMK A01 T02760144  RH  045%=      5-min Rain = 0
KPD1 161837Z 16012G18KT 28/14 A3006 RMK A01 T02770144  RH  044%=      5-min Rain = 0
KPD1 161838Z 17014G19KT 28/15 A3006 RMK A01 T02810146  RH  044%=      5-min Rain = 0
KPD1 161839Z 19009KT 29/15 A3006 RMK A01 T02850147  RH  043%=      5-min Rain = 0
KPD1 161840Z 17008KT 29/15 A3006 RMK A01 T02870148  RH  043%=      5-min Rain = 0
KPD1 161841Z 16009KT 29/15 A3005 RMK A01 T02900147  RH  042%=      5-min Rain = 0
KPD1 161842Z 18010G18KT 29/15 A3005 RMK A01 T02900147  RH  042%=      5-min Rain = 0
KPD1 161843Z 19013G18KT 29/15 A3006 RMK A01 T02890146  RH  042%=      5-min Rain = 0
KPD1 161844Z 18011KT 29/14 A3006 RMK A01 T02850141  RH  041%=      5-min Rain = 0
KPD1 161845Z 17008G13KT 28/14 A3005 RMK A01 T02800140  RH  042%=      5-min Rain = 0
KPD1 161846Z 18011KT 28/14 A3005 RMK A01 T02760141  RH  043%=      5-min Rain = 0
KPD1 161847Z 18011G17KT 28/14 A3005 RMK A01 T02770144  RH  044%=      5-min Rain = 0
KPD1 161848Z 21010G16KT 28/14 A3005 RMK A01 T02810144  RH  043%=      5-min Rain = 0
KPD1 161849Z 20015KT 29/15 A3005 RMK A01 T02860145  RH  042%=      5-min Rain = 0
KPD1 161850Z 20011KT 29/14 A3005 RMK A01 T02890142  RH  041%=      5-min Rain = 0
KPD1 161851Z 20011KT 29/14 A3005 RMK A01 T02850141  RH  041%=      5-min Rain = 0
KPD1 161852Z 18014G19KT 29/14 A3005 RMK A01 T02850142  RH  042%=      5-min Rain = 0
KPD1 161853Z 19015G20KT 29/14 A3005 RMK A01 T02860142  RH  041%=      5-min Rain = 0
KPD1 161854Z 19012KT 29/14 A3005 RMK A01 T02860143  RH  042%=      5-min Rain = 0
KPD1 161855Z 20009G17KT 29/14 A3005 RMK A01 T02890144  RH  041%=      5-min Rain = 0
KPD1 161856Z 21011KT 29/14 A3005 RMK A01 T02920143  RH  040%=      5-min Rain = 0
KPD1 161857Z 20013KT 30/14 A3005 RMK A01 T02950143  RH  039%=      5-min Rain = 0
KPD1 161858Z 19009KT 29/14 A3005 RMK A01 T02920143  RH  040%=      5-min Rain = 0
KPD1 161859Z 19013KT 29/14 A3005 RMK A01 T02930144  RH  040%=      5-min Rain = 0
KPD1 161900Z 20016G21KT 29/14 A3005 RMK A01 T02930142  RH  040%=      5-min Rain = 0
KPD1 161901Z 19013G20KT 29/14 A3005 RMK A01 T02900142  RH  040%=      5-min Rain = 0
KPD1 161902Z 19013KT 29/14 A3005 RMK A01 T02900143  RH  041%=      5-min Rain = 0
KPD1 161903Z 18011G16KT 29/14 A3005 RMK A01 T02910143  RH  040%=      5-min Rain = 0
KPD1 161904Z 19013KT 29/14 A3005 RMK A01 T02920142  RH  040%=      5-min Rain = 0
KPD1 161905Z 19012KT 29/14 A3005 RMK A01 T02860138  RH  040%=      5-min Rain = 0
KPD1 161906Z 18009KT 28/14 A3005 RMK A01 T02790137  RH  042%=      5-min Rain = 0
KPD1 161907Z 20011G16KT 27/14 A3005 RMK A01 T02740138  RH  043%=      5-min Rain = 0
KPD1 161908Z 20012G17KT 27/14 A3005 RMK A01 T02720136  RH  043%=      5-min Rain = 0
KPD1 161909Z 21015KT 27/14 A3005 RMK A01 T02700135  RH  043%=      5-min Rain = 0
KPD1 161910Z 21013G20KT 27/14 A3005 RMK A01 T02700136  RH  044%=      5-min Rain = 0
KPD1 161911Z 19011KT 28/14 A3005 RMK A01 T02770140  RH  043%=      5-min Rain = 0
KPD1 161912Z 19009G18KT 28/14 A3005 RMK A01 T02840140  RH  041%=      5-min Rain = 0
KPD1 161913Z 21018KT 29/14 A3005 RMK A01 T02900142  RH  040%=      5-min Rain = 0
KPD1 161914Z 22016KT 29/14 A3005 RMK A01 T02870139  RH  040%=      5-min Rain = 0
KPD1 161915Z 23016KT 28/14 A3005 RMK A01 T02830139  RH  041%=      5-min Rain = 0
KPD1 161916Z 23015KT 28/14 A3005 RMK A01 T02820138  RH  041%=      5-min Rain = 0
KPD1 161917Z 23013KT 28/14 A3005 RMK A01 T02820136  RH  041%=      5-min Rain = 0
KPD1 161918Z 22012KT 28/14 A3005 RMK A01 T02820137  RH  041%=      5-min Rain = 0
KPD1 161919Z 21009KT 29/14 A3005 RMK A01 T02850139  RH  041%=      5-min Rain = 0
KPD1 161920Z 21010KT 29/14 A3005 RMK A01 T02900142  RH  040%=      5-min Rain = 0
KPD1 161921Z 22010KT 30/14 A3005 RMK A01 T02950142  RH  039%=      5-min Rain = 0
KPD1 161922Z 19014KT 30/14 A3005 RMK A01 T02950140  RH  039%=      5-min Rain = 0
KPD1 161923Z 20012KT 29/14 A3005 RMK A01 T02940137  RH  038%=      5-min Rain = 0
KPD1 161924Z 21012G17KT 29/14 A3005 RMK A01 T02940137  RH  038%=      5-min Rain = 0
KPD1 161925Z 22011KT 29/14 A3005 RMK A01 T02940135  RH  038%=      5-min Rain = 0
KPD1 161926Z 23010KT 29/14 A3005 RMK A01 T02920135  RH  038%=      5-min Rain = 0
KPD1 161927Z 21006G12KT 29/14 A3005 RMK A01 T02910135  RH  038%=      5-min Rain = 0
KPD1 161928Z 20011G17KT 29/14 A3005 RMK A01 T02920136  RH  038%=      5-min Rain = 0
KPD1 161929Z 18015KT 29/13 A3005 RMK A01 T02940134  RH  038%=      5-min Rain = 0
KPD1 161930Z 19012KT 29/13 A3005 RMK A01 T02940132  RH  037%=      5-min Rain = 0
KPD1 161931Z 18012G17KT 29/13 A3005 RMK A01 T02920131  RH  037%=      5-min Rain = 0
KPD1 161932Z 20016KT 29/13 A3005 RMK A01 T02900130  RH  037%=      5-min Rain = 0
KPD1 161933Z 21012G17KT 29/13 A3005 RMK A01 T02870129  RH  038%=      5-min Rain = 0
KPD1 161934Z 22008G13KT 29/13 A3005 RMK A01 T02870131  RH  038%=      5-min Rain = 0
KPD1 161935Z 21008KT 29/13 A3005 RMK A01 T02930134  RH  038%=      5-min Rain = 0
KPD1 161936Z 20012KT 30/13 A3005 RMK A01 T02990133  RH  036%=      5-min Rain = 0
KPD1 161937Z 20014KT 30/13 A3005 RMK A01 T02990131  RH  036%=      5-min Rain = 0
KPD1 161938Z 21012KT 30/13 A3005 RMK A01 T02950128  RH  036%=      5-min Rain = 0
KPD1 161939Z 22014G20KT 29/13 A3005 RMK A01 T02900128  RH  037%=      5-min Rain = 0
KPD1 161940Z 24017KT 29/13 A3005 RMK A01 T02870130  RH  038%=      5-min Rain = 0
KPD1 161941Z 23014KT 29/13 A3005 RMK A01 T02870129  RH  038%=      5-min Rain = 0
KPD1 161942Z 22010G15KT 29/13 A3005 RMK A01 T02880129  RH  038%=      5-min Rain = 0
KPD1 161943Z 22009KT 29/13 A3005 RMK A01 T02930130  RH  037%=      5-min Rain = 0
KPD1 161944Z 21008KT 29/13 A3005 RMK A01 T02940129  RH  036%=      5-min Rain = 0
KPD1 161945Z 20012G17KT 29/13 A3005 RMK A01 T02940130  RH  036%=      5-min Rain = 0
KPD1 161946Z 20013G19KT 30/13 A3005 RMK A01 T02970130  RH  036%=      5-min Rain = 0
KPD1 161947Z 21016G21KT 30/13 A3005 RMK A01 T02990128  RH  035%=      5-min Rain = 0
KPD1 161948Z 22011KT 29/12 A3005 RMK A01 T02940124  RH  035%=      5-min Rain = 0
KPD1 161949Z 20013G19KT 29/13 A3005 RMK A01 T02900126  RH  036%=      5-min Rain = 0
KPD1 161950Z 20014G21KT 29/13 A3005 RMK A01 T02920126  RH  036%=      5-min Rain = 0
KPD1 161951Z 20012KT 29/13 A3005 RMK A01 T02930125  RH  035%=      5-min Rain = 0
KPD1 161952Z 19009KT 29/13 A3004 RMK A01 T02930126  RH  036%=      5-min Rain = 0
KPD1 161953Z 17013KT 30/13 A3004 RMK A01 T02960127  RH  035%=      5-min Rain = 0
KPD1 161954Z 18012G17KT 30/13 A3004 RMK A01 T02960126  RH  035%=      5-min Rain = 0
KPD1 161955Z 18010G15KT 29/13 A3004 RMK A01 T02930126  RH  036%=      5-min Rain = 0
KPD1 161956Z 21010KT 29/13 A3005 RMK A01 T02930127  RH  036%=      5-min Rain = 0
KPD1 161957Z 22012KT 30/13 A3004 RMK A01 T02970129  RH  036%=      5-min Rain = 0
KPD1 161958Z 20012KT 30/13 A3004 RMK A01 T03000129  RH  035%=      5-min Rain = 0
KPD1 161959Z 21013KT 30/13 A3004 RMK A01 T03000127  RH  035%=      5-min Rain = 0
KPD1 162000Z 21014KT 30/13 A3004 RMK A01 T02970126  RH  035%=      5-min Rain = 0
KPD1 162001Z 21015KT 29/13 A3004 RMK A01 T02940127  RH  036%=      5-min Rain = 0
KPD1 162002Z 21008G15KT 29/13 A3004 RMK A01 T02900125  RH  036%=      5-min Rain = 0
KPD1 162003Z 21008KT 29/13 A3004 RMK A01 T02850125  RH  037%=      5-min Rain = 0
KPD1 162004Z 21010KT 28/13 A3004 RMK A01 T02840126  RH  038%=      5-min Rain = 0
KPD1 162005Z 21007KT 28/13 A3004 RMK A01 T02840126  RH  038%=      5-min Rain = 0
KPD1 162006Z 21013KT 29/13 A3004 RMK A01 T02860127  RH  037%=      5-min Rain = 0
KPD1 162007Z 21011KT 29/13 A3004 RMK A01 T02870125  RH  037%=      5-min Rain = 0
KPD1 162008Z 22012KT 29/12 A3004 RMK A01 T02860124  RH  037%=      5-min Rain = 0
KPD1 162009Z 21008KT 29/13 A3004 RMK A01 T02870125  RH  037%=      5-min Rain = 0
KPD1 162010Z 22007KT 29/13 A3004 RMK A01 T02920129  RH  036%=      5-min Rain = 0
KPD1 162011Z 22010G15KT 30/13 A3004 RMK A01 T02960128  RH  036%=      5-min Rain = 0
KPD1 162012Z 24014KT 30/13 A3004 RMK A01 T02960127  RH  035%=      5-min Rain = 0
KPD1 162013Z 24014KT 29/13 A3004 RMK A01 T02920128  RH  036%=      5-min Rain = 0
KPD1 162014Z 21011KT 29/13 A3004 RMK A01 T02930131  RH  037%=      5-min Rain = 0
KPD1 162015Z 21010KT 30/13 A3004 RMK A01 T02990132  RH  036%=      5-min Rain = 0
KPD1 162016Z 20011KT 30/13 A3004 RMK A01 T03040129  RH  034%=      5-min Rain = 0
KPD1 162017Z 20010KT 30/13 A3004 RMK A01 T03020127  RH  034%=      5-min Rain = 0
KPD1 162018Z 20014KT 30/13 A3004 RMK A01 T02980125  RH  035%=      5-min Rain = 0
KPD1 162019Z 20013KT 30/12 A3004 RMK A01 T02950124  RH  035%=      5-min Rain = 0
KPD1 162020Z 20010KT 30/12 A3004 RMK A01 T02950124  RH  035%=      5-min Rain = 0
KPD1 162021Z 22009G14KT 29/13 A3003 RMK A01 T02930125  RH  035%=      5-min Rain = 0
KPD1 162022Z 21011KT 29/13 A3003 RMK A01 T02930126  RH  036%=      5-min Rain = 0
KPD1 162023Z 20014KT 29/13 A3003 RMK A01 T02940127  RH  036%=      5-min Rain = 0
KPD1 162024Z 21017KT 30/13 A3003 RMK A01 T02990129  RH  035%=      5-min Rain = 0
KPD1 162025Z 24016KT 30/13 A3003 RMK A01 T03010128  RH  035%=      5-min Rain = 0
KPD1 162026Z 23012KT 30/13 A3003 RMK A01 T02970125  RH  035%=      5-min Rain = 0
KPD1 162027Z 23011KT 30/13 A3003 RMK A01 T02960126  RH  035%=      5-min Rain = 0
KPD1 162028Z 23010KT 30/13 A3003 RMK A01 T02970127  RH  035%=      5-min Rain = 0
KPD1 162029Z 21014KT 30/13 A3003 RMK A01 T03000128  RH  035%=      5-min Rain = 0
KPD1 162030Z 19011G18KT 30/13 A3003 RMK A01 T02990125  RH  034%=      5-min Rain = 0
KPD1 162031Z 20009KT 30/12 A3003 RMK A01 T02950123  RH  035%=      5-min Rain = 0
KPD1 162032Z 20009G14KT 29/12 A3003 RMK A01 T02910124  RH  036%=      5-min Rain = 0
KPD1 162033Z 19012KT 29/12 A3003 RMK A01 T02900123  RH  036%=      5-min Rain = 0
KPD1 162034Z 22008G13KT 29/12 A3003 RMK A01 T02920124  RH  035%=      5-min Rain = 0
KPD1 162035Z 22009G14KT 30/12 A3003 RMK A01 T02950124  RH  035%=      5-min Rain = 0
KPD1 162036Z 22008G13KT 30/12 A3003 RMK A01 T02970121  RH  034%=      5-min Rain = 0
KPD1 162037Z 20007KT 30/12 A3003 RMK A01 T02970123  RH  034%=      5-min Rain = 0
KPD1 162038Z 21013G19KT 30/12 A3003 RMK A01 T02980124  RH  034%=      5-min Rain = 0
KPD1 162039Z 21015KT 30/12 A3003 RMK A01 T02980123  RH  034%=      5-min Rain = 0
KPD1 162040Z 18012KT 30/12 A3003 RMK A01 T02960124  RH  035%=      5-min Rain = 0
KPD1 162041Z 19012KT 30/12 A3003 RMK A01 T02980124  RH  034%=      5-min Rain = 0
KPD1 162042Z 20016KT 30/13 A3003 RMK A01 T03010126  RH  034%=      5-min Rain = 0
KPD1 162043Z 20013KT 30/13 A3003 RMK A01 T03030125  RH  034%=      5-min Rain = 0
KPD1 162044Z 19014G20KT 30/12 A3003 RMK A01 T03040124  RH  033%=      5-min Rain = 0
KPD1 162045Z 21012KT 31/12 A3003 RMK A01 T03050124  RH  033%=      5-min Rain = 0
KPD1 162046Z 22013G18KT 31/12 A3003 RMK A01 T03050124  RH  033%=      5-min Rain = 0
KPD1 162047Z 24011KT 31/12 A3003 RMK A01 T03050124  RH  033%=      5-min Rain = 0
KPD1 162048Z 24007KT 31/13 A3003 RMK A01 T03060126  RH  033%=      5-min Rain = 0
KPD1 162049Z 21012KT 31/13 A3003 RMK A01 T03080125  RH  033%=      5-min Rain = 0
KPD1 162050Z 20008KT 30/12 A3003 RMK A01 T03040122  RH  033%=      5-min Rain = 0
KPD1 162051Z 21009KT 30/12 A3003 RMK A01 T02990123  RH  034%=      5-min Rain = 0
KPD1 162052Z 20012KT 30/12 A3002 RMK A01 T02970123  RH  034%=      5-min Rain = 0
KPD1 162053Z 18010KT 30/12 A3003 RMK A01 T02950122  RH  034%=      5-min Rain = 0
KPD1 162054Z 18011KT 29/12 A3002 RMK A01 T02930121  RH  035%=      5-min Rain = 0
KPD1 162055Z 18009KT 29/12 A3002 RMK A01 T02920120  RH  035%=      5-min Rain = 0
KPD1 162056Z 20010KT 29/12 A3002 RMK A01 T02910120  RH  035%=      5-min Rain = 0
KPD1 162057Z 17010KT 29/12 A3002 RMK A01 T02900120  RH  035%=      5-min Rain = 0
KPD1 162058Z 17011G17KT 29/12 A3002 RMK A01 T02890120  RH  035%=      5-min Rain = 0
KPD1 162059Z 18011KT 29/12 A3002 RMK A01 T02900120  RH  035%=      5-min Rain = 0
KPD1 162100Z 17013G18KT 29/12 A3002 RMK A01 T02930121  RH  035%=      5-min Rain = 0
KPD1 162101Z 18014KT 30/12 A3002 RMK A01 T02970121  RH  034%=      5-min Rain = 0
KPD1 162102Z 19018KT 30/12 A3002 RMK A01 T03000119  RH  033%=      5-min Rain = 0
KPD1 162103Z 20016KT 30/12 A3002 RMK A01 T03020117  RH  032%=      5-min Rain = 0
KPD1 162104Z 19013KT 31/12 A3002 RMK A01 T03050116  RH  031%=      5-min Rain = 0
KPD1 162105Z 19012KT 31/12 A3002 RMK A01 T03060117  RH  031%=      5-min Rain = 0
KPD1 162106Z 19010KT 31/12 A3002 RMK A01 T03060119  RH  032%=      5-min Rain = 0
KPD1 162107Z 20010KT 31/12 A3002 RMK A01 T03060121  RH  032%=      5-min Rain = 0
KPD1 162108Z 19010KT 30/12 A3002 RMK A01 T03030118  RH  032%=      5-min Rain = 0
KPD1 162109Z 18015G20KT 30/12 A3002 RMK A01 T03000117  RH  032%=      5-min Rain = 0
KPD1 162110Z 18014KT 30/12 A3002 RMK A01 T02960115  RH  033%=      5-min Rain = 0
KPD1 162111Z 18011KT 30/12 A3002 RMK A01 T02950115  RH  033%=      5-min Rain = 0
KPD1 162112Z 19010G17KT 30/12 A3002 RMK A01 T02990117  RH  033%=      5-min Rain = 0
KPD1 162113Z 20014KT 30/12 A3002 RMK A01 T03040118  RH  032%=      5-min Rain = 0
KPD1 162114Z 20012KT 31/12 A3002 RMK A01 T03070119  RH  032%=      5-min Rain = 0
KPD1 162115Z 19008KT 31/12 A3002 RMK A01 T03070118  RH  031%=      5-min Rain = 0
KPD1 162116Z 20008KT 30/12 A3002 RMK A01 T03040115  RH  031%=      5-min Rain = 0
KPD1 162117Z 21012G17KT 30/12 A3002 RMK A01 T02990115  RH  032%=      5-min Rain = 0
KPD1 162118Z 19008KT 29/11 A3002 RMK A01 T02940113  RH  033%=      5-min Rain = 0
KPD1 162119Z 20007KT 29/12 A3001 RMK A01 T02920116  RH  034%=      5-min Rain = 0
KPD1 162120Z 21008KT 30/12 A3001 RMK A01 T02970119  RH  033%=      5-min Rain = 0
KPD1 162121Z 22009KT 30/12 A3001 RMK A01 T03020116  RH  032%=      5-min Rain = 0
KPD1 162122Z 21008KT 30/12 A3001 RMK A01 T03040116  RH  031%=      5-min Rain = 0
KPD1 162123Z 22011KT 31/12 A3001 RMK A01 T03080115  RH  031%=      5-min Rain = 0
KPD1 162124Z 23011KT 31/11 A3001 RMK A01 T03110113  RH  030%=      5-min Rain = 0
KPD1 162125Z 22008KT 31/11 A3001 RMK A01 T03110112  RH  030%=      5-min Rain = 0
KPD1 162126Z 21008G15KT 31/12 A3001 RMK A01 T03140116  RH  030%=      5-min Rain = 0
KPD1 162127Z 21007KT 32/11 A3001 RMK A01 T03170113  RH  029%=      5-min Rain = 0
KPD1 162128Z 21008KT 32/11 A3001 RMK A01 T03160112  RH  028%=      5-min Rain = 0
KPD1 162129Z 22005G10KT 31/11 A3001 RMK A01 T03130110  RH  029%=      5-min Rain = 0
KPD1 162130Z 22004KT 31/12 A3001 RMK A01 T03120115  RH  030%=      5-min Rain = 0
KPD1 162131Z 21006KT 32/11 A3001 RMK A01 T03170114  RH  029%=      5-min Rain = 0
KPD1 162132Z 19005KT 32/11 A3001 RMK A01 T03190111  RH  028%=      5-min Rain = 0
KPD1 162133Z 17007KT 32/12 A3001 RMK A01 T03180119  RH  030%=      5-min Rain = 0
KPD1 162134Z 17011G16KT 32/13 A3001 RMK A01 T03180125  RH  031%=      5-min Rain = 0
KPD1 162135Z 17010G15KT 32/13 A3001 RMK A01 T03200127  RH  031%=      5-min Rain = 0
KPD1 162136Z 17014G22KT 32/13 A30 RMK A01 T03180130  RH  032%=      5-min Rain = 0
KPD1 162137Z 17012G17KT 32/13 A30 RMK A01 T03150131  RH  032%=      5-min Rain = 0
KPD1 162138Z 18008KT 31/13 A30 RMK A01 T03140133  RH  033%=      5-min Rain = 0
KPD1 162139Z 16011G16KT 32/13 A30 RMK A01 T03170133  RH  033%=      5-min Rain = 0
KPD1 162140Z 16010KT 32/13 A30 RMK A01 T03180132  RH  032%=      5-min Rain = 0
KPD1 162141Z 17010KT 32/13 A30 RMK A01 T03170131  RH  032%=      5-min Rain = 0
KPD1 162142Z 20007KT 31/13 A30 RMK A01 T03130131  RH  033%=      5-min Rain = 0
KPD1 162143Z 17006KT 31/13 A30 RMK A01 T03080130  RH  034%=      5-min Rain = 0
KPD1 162144Z 15008KT 31/13 A30 RMK A01 T03050130  RH  034%=      5-min Rain = 0
KPD1 162145Z 15007KT 30/13 A30 RMK A01 T03030129  RH  034%=      5-min Rain = 0
KPD1 162146Z 16007KT 30/13 A30 RMK A01 T03000130  RH  035%=      5-min Rain = 0
KPD1 162147Z 16010KT 30/13 A30 RMK A01 T02990133  RH  036%=      5-min Rain = 0
KPD1 162148Z 15010KT 30/14 A30 RMK A01 T02990135  RH  037%=      5-min Rain = 0
KPD1 162149Z 15015KT 30/14 A30 RMK A01 T02980135  RH  037%=      5-min Rain = 0
KPD1 162150Z 17011KT 30/13 A30 RMK A01 T02950134  RH  037%=      5-min Rain = 0
KPD1 162151Z 17009KT 29/13 A30 RMK A01 T02930134  RH  038%=      5-min Rain = 0
KPD1 162152Z 16010KT 29/13 A30 RMK A01 T02920134  RH  038%=      5-min Rain = 0
KPD1 162153Z 16014KT 29/13 A30 RMK A01 T02910134  RH  038%=      5-min Rain = 0
KPD1 162154Z 14011KT 29/13 A30 RMK A01 T02890134  RH  039%=      5-min Rain = 0
KPD1 162155Z 15013KT 29/13 A30 RMK A01 T02870133  RH  039%=      5-min Rain = 0
KPD1 162156Z 15010KT 29/13 A30 RMK A01 T02870133  RH  039%=      5-min Rain = 0
KPD1 162157Z 15008KT 29/13 A30 RMK A01 T02860133  RH  039%=      5-min Rain = 0
KPD1 162158Z 16008G13KT 29/13 A30 RMK A01 T02860134  RH  039%=      5-min Rain = 0
KPD1 162159Z 14010KT 29/14 A30 RMK A01 T02900137  RH  039%=      5-min Rain = 0
KPD1 162200Z 15010KT 30/14 A30 RMK A01 T02950139  RH  038%=      5-min Rain = 0
KPD1 162201Z 16010KT 30/14 A30 RMK A01 T03000139  RH  037%=      5-min Rain = 0
KPD1 162202Z 16007G12KT 31/14 A2999 RMK A01 T03050140  RH  037%=      5-min Rain = 0
KPD1 162203Z 15013KT 31/14 A2999 RMK A01 T03070140  RH  036%=      5-min Rain = 0
KPD1 162204Z 15009KT 31/14 A2999 RMK A01 T03060140  RH  036%=      5-min Rain = 0
KPD1 162205Z 15011G16KT 30/14 A2999 RMK A01 T03030139  RH  037%=      5-min Rain = 0
KPD1 162206Z 15011KT 30/14 A2999 RMK A01 T02980139  RH  038%=      5-min Rain = 0
KPD1 162207Z 15009G14KT 29/14 A2999 RMK A01 T02930139  RH  039%=      5-min Rain = 0
KPD1 162208Z 14011KT 29/14 A2999 RMK A01 T02910139  RH  039%=      5-min Rain = 0
KPD1 162209Z 15008KT 29/14 A2999 RMK A01 T02890139  RH  040%=      5-min Rain = 0
KPD1 162210Z 14011G17KT 29/14 A2999 RMK A01 T02880139  RH  040%=      5-min Rain = 0
KPD1 162211Z 14012KT 29/14 A2999 RMK A01 T02870139  RH  040%=      5-min Rain = 0
KPD1 162212Z 15012KT 29/14 A2999 RMK A01 T02860138  RH  040%=      5-min Rain = 0
KPD1 162213Z 17012KT 29/14 A2999 RMK A01 T02850138  RH  040%=      5-min Rain = 0
KPD1 162214Z 17012KT 29/13 A2999 RMK A01 T02850133  RH  039%=      5-min Rain = 0
KPD1 162215Z 17011KT 29/13 A2999 RMK A01 T02850132  RH  039%=      5-min Rain = 0
KPD1 162216Z 16010KT 29/13 A2999 RMK A01 T02850132  RH  039%=      5-min Rain = 0
KPD1 162217Z 17010G15KT 29/13 A2999 RMK A01 T02850133  RH  039%=      5-min Rain = 0
KPD1 162218Z 18012KT 29/14 A2999 RMK A01 T02850135  RH  040%=      5-min Rain = 0
KPD1 162219Z 18015KT 29/14 A2999 RMK A01 T02850136  RH  040%=      5-min Rain = 0
KPD1 162220Z 17013G18KT 29/14 A2999 RMK A01 T02850136  RH  040%=      5-min Rain = 0
KPD1 162221Z 15012G18KT 28/14 A2999 RMK A01 T02840136  RH  040%=      5-min Rain = 0
KPD1 162222Z 17011G16KT 29/14 A2999 RMK A01 T02850137  RH  040%=      5-min Rain = 0
KPD1 162223Z 17009KT 29/14 A2999 RMK A01 T02880138  RH  040%=      5-min Rain = 0
KPD1 162224Z 17007KT 29/14 A2999 RMK A01 T02930140  RH  039%=      5-min Rain = 0
KPD1 162225Z 14010G15KT 30/14 A2999 RMK A01 T02980140  RH  038%=      5-min Rain = 0
KPD1 162226Z 14010G16KT 30/14 A2998 RMK A01 T03020141  RH  037%=      5-min Rain = 0
KPD1 162227Z 16011KT 30/14 A2998 RMK A01 T03040139  RH  037%=      5-min Rain = 0
KPD1 162228Z 15011KT 30/14 A2998 RMK A01 T03030139  RH  037%=      5-min Rain = 0
KPD1 162229Z 15013KT 30/14 A2998 RMK A01 T03020139  RH  037%=      5-min Rain = 0
KPD1 162230Z 15012KT 30/14 A2998 RMK A01 T02980138  RH  037%=      5-min Rain = 0
KPD1 162231Z 15011G16KT 29/14 A2998 RMK A01 T02940137  RH  038%=      5-min Rain = 0
KPD1 162232Z 17012G18KT 29/14 A2998 RMK A01 T02930137  RH  039%=      5-min Rain = 0
KPD1 162233Z 16010KT 29/14 A2998 RMK A01 T02940137  RH  038%=      5-min Rain = 0
KPD1 162234Z 15011G17KT 30/14 A2998 RMK A01 T02960138  RH  038%=      5-min Rain = 0
KPD1 162235Z 15012KT 30/14 A2998 RMK A01 T02980137  RH  037%=      5-min Rain = 0
KPD1 162236Z 15009KT 30/14 A2998 RMK A01 T02970137  RH  038%=      5-min Rain = 0
KPD1 162237Z 14010KT 30/14 A2998 RMK A01 T02950137  RH  038%=      5-min Rain = 0
KPD1 162238Z 16013G19KT 29/14 A2998 RMK A01 T02920137  RH  038%=      5-min Rain = 0
KPD1 162239Z 16013KT 29/14 A2998 RMK A01 T02900135  RH  038%=      5-min Rain = 0
KPD1 162240Z 15014G20KT 29/13 A2998 RMK A01 T02890134  RH  038%=      5-min Rain = 0
KPD1 162241Z 16013G19KT 29/13 A2998 RMK A01 T02890133  RH  038%=      5-min Rain = 0
KPD1 162242Z 17015G20KT 29/13 A2998 RMK A01 T02890133  RH  038%=      5-min Rain = 0
KPD1 162243Z 18012KT 29/13 A2998 RMK A01 T02880133  RH  039%=      5-min Rain = 0
KPD1 162244Z 17014KT 29/13 A2998 RMK A01 T02870134  RH  039%=      5-min Rain = 0
KPD1 162245Z 17011KT 29/13 A2998 RMK A01 T02860134  RH  039%=      5-min Rain = 0
KPD1 162246Z 17011G17KT 29/13 A2998 RMK A01 T02850134  RH  040%=      5-min Rain = 0
KPD1 162247Z 16012KT 28/13 A2998 RMK A01 T02840134  RH  040%=      5-min Rain = 0
KPD1 162248Z 15010KT 28/13 A2998 RMK A01 T02840134  RH  040%=      5-min Rain = 0
KPD1 162249Z 15013KT 28/13 A2998 RMK A01 T02840134  RH  040%=      5-min Rain = 0
KPD1 162250Z 15013G18KT 28/13 A2998 RMK A01 T02830133  RH  040%=      5-min Rain = 0
KPD1 162251Z 16012G17KT 28/13 A2998 RMK A01 T02830134  RH  040%=      5-min Rain = 0
KPD1 162252Z 17012KT 28/13 A2998 RMK A01 T02820134  RH  040%=      5-min Rain = 0
KPD1 162253Z 15010G17KT 28/14 A2998 RMK A01 T02820135  RH  040%=      5-min Rain = 0
KPD1 162254Z 15012KT 28/14 A2998 RMK A01 T02830135  RH  040%=      5-min Rain = 0
KPD1 162255Z 14010KT 28/14 A2998 RMK A01 T02840135  RH  040%=      5-min Rain = 0
KPD1 162256Z 15009KT 28/14 A2998 RMK A01 T02840135  RH  040%=      5-min Rain = 0
KPD1 162257Z 15011KT 29/14 A2998 RMK A01 T02850135  RH  040%=      5-min Rain = 0
KPD1 162258Z 16013KT 29/14 A2998 RMK A01 T02870135  RH  039%=      5-min Rain = 0
KPD1 162259Z 15008KT 29/14 A2998 RMK A01 T02900135  RH  039%=      5-min Rain = 0
KPD1 162300Z 15007G18KT 29/14 A2998 RMK A01 T02920136  RH  038%=      5-min Rain = 0
KPD1 162301Z 16010G17KT 29/13 A2998 RMK A01 T02940134  RH  037%=      5-min Rain = 0
KPD1 162302Z 17011KT 30/13 A2998 RMK A01 T02960134  RH  037%=      5-min Rain = 0
KPD1 162303Z 16010KT 30/14 A2998 RMK A01 T02970135  RH  037%=      5-min Rain = 0
KPD1 162304Z 17008G13KT 30/14 A2998 RMK A01 T02960135  RH  037%=      5-min Rain = 0
KPD1 162305Z 16011KT 30/14 A2998 RMK A01 T02960135  RH  037%=      5-min Rain = 0
KPD1 162306Z 16011KT 29/13 A2998 RMK A01 T02930134  RH  038%=      5-min Rain = 0
KPD1 162307Z 15011KT 29/13 A2998 RMK A01 T02900134  RH  038%=      5-min Rain = 0
KPD1 162308Z 16012KT 29/13 A2998 RMK A01 T02880134  RH  039%=      5-min Rain = 0
KPD1 162309Z 16013KT 29/13 A2998 RMK A01 T02860133  RH  039%=      5-min Rain = 0
KPD1 162310Z 17012KT 29/13 A2998 RMK A01 T02860134  RH  039%=      5-min Rain = 0
KPD1 162311Z 16009KT 29/13 A2998 RMK A01 T02850133  RH  039%=      5-min Rain = 0
KPD1 162312Z 15013KT 29/13 A2998 RMK A01 T02850132  RH  039%=      5-min Rain = 0
KPD1 162313Z 15013KT 29/13 A2998 RMK A01 T02870132  RH  039%=      5-min Rain = 0
KPD1 162314Z 16011KT 29/13 A2998 RMK A01 T02890132  RH  038%=      5-min Rain = 0
KPD1 162315Z 17009KT 29/13 A2998 RMK A01 T02910132  RH  038%=      5-min Rain = 0
KPD1 162316Z 14009G15KT 29/13 A2998 RMK A01 T02920133  RH  038%=      5-min Rain = 0
KPD1 162317Z 15013G19KT 29/13 A2998 RMK A01 T02940134  RH  037%=      5-min Rain = 0
KPD1 162318Z 16016KT 30/13 A2998 RMK A01 T02950133  RH  037%=      5-min Rain = 0
KPD1 162319Z 17013G19KT 29/13 A2998 RMK A01 T02940133  RH  037%=      5-min Rain = 0
KPD1 162320Z 18015G20KT 30/13 A2998 RMK A01 T02950132  RH  037%=      5-min Rain = 0
KPD1 162321Z 18013KT 29/13 A2998 RMK A01 T02930131  RH  037%=      5-min Rain = 0
KPD1 162322Z 18012G17KT 29/13 A2998 RMK A01 T02910131  RH  037%=      5-min Rain = 0
KPD1 162323Z 16007KT 29/13 A2998 RMK A01 T02900132  RH  038%=      5-min Rain = 0
KPD1 162324Z 16010KT 29/13 A2998 RMK A01 T02890132  RH  038%=      5-min Rain = 0
KPD1 162325Z 17012KT 29/13 A2998 RMK A01 T02880132  RH  038%=      5-min Rain = 0
KPD1 162326Z 17014KT 29/13 A2998 RMK A01 T02860132  RH  039%=      5-min Rain = 0
KPD1 162327Z 16011KT 29/13 A2998 RMK A01 T02850132  RH  039%=      5-min Rain = 0
KPD1 162328Z 16011KT 29/13 A2998 RMK A01 T02850133  RH  039%=      5-min Rain = 0
KPD1 162329Z 16012KT 29/13 A2998 RMK A01 T02870133  RH  039%=      5-min Rain = 0
KPD1 162330Z 16012KT 29/13 A2998 RMK A01 T02890134  RH  039%=      5-min Rain = 0
KPD1 162331Z 16010KT 29/13 A2998 RMK A01 T02890133  RH  038%=      5-min Rain = 0
KPD1 162332Z 15009KT 29/13 A2998 RMK A01 T02890133  RH  038%=      5-min Rain = 0
KPD1 162333Z 15010KT 29/13 A2998 RMK A01 T02880133  RH  038%=      5-min Rain = 0
KPD1 162334Z 16012KT 29/13 A2998 RMK A01 T02870133  RH  039%=      5-min Rain = 0
KPD1 162335Z 15012G18KT 29/13 A2998 RMK A01 T02860133  RH  039%=      5-min Rain = 0
KPD1 162336Z 15010KT 29/13 A2998 RMK A01 T02850133  RH  039%=      5-min Rain = 0
KPD1 162337Z 15010G15KT 29/13 A2998 RMK A01 T02870134  RH  039%=      5-min Rain = 0
KPD1 162338Z 15010KT 29/13 A2997 RMK A01 T02880133  RH  039%=      5-min Rain = 0
KPD1 162339Z 16012KT 29/13 A2997 RMK A01 T02890134  RH  039%=      5-min Rain = 0
KPD1 162340Z 17012KT 29/13 A2997 RMK A01 T02880133  RH  039%=      5-min Rain = 0
KPD1 162341Z 17013KT 29/13 A2997 RMK A01 T02870133  RH  039%=      5-min Rain = 0
KPD1 162342Z 17012KT 29/13 A2997 RMK A01 T02850132  RH  039%=      5-min Rain = 0
KPD1 162343Z 17013KT 28/13 A2997 RMK A01 T02840132  RH  039%=      5-min Rain = 0
KPD1 162344Z 17011KT 28/13 A2997 RMK A01 T02820132  RH  040%=      5-min Rain = 0
KPD1 162345Z 18013KT 28/13 A2997 RMK A01 T02810132  RH  040%=      5-min Rain = 0
KPD1 162346Z 18010KT 28/13 A2997 RMK A01 T02800132  RH  040%=      5-min Rain = 0
KPD1 162347Z 18009KT 28/13 A2997 RMK A01 T02790132  RH  040%=      5-min Rain = 0
KPD1 162348Z 18008KT 28/13 A2997 RMK A01 T02790132  RH  040%=      5-min Rain = 0
KPD1 162349Z 17009G14KT 28/13 A2997 RMK A01 T02780132  RH  040%=      5-min Rain = 0
KPD1 162350Z 15009G14KT 28/13 A2997 RMK A01 T02790132  RH  040%=      5-min Rain = 0
KPD1 162351Z 16011KT 28/13 A2997 RMK A01 T02790132  RH  040%=      5-min Rain = 0
KPD1 162352Z 16012G17KT 28/13 A2997 RMK A01 T02790131  RH  040%=      5-min Rain = 0
KPD1 162353Z 18011KT 28/13 A2997 RMK A01 T02790131  RH  040%=      5-min Rain = 0
KPD1 162354Z 16010G17KT 28/13 A2997 RMK A01 T02780131  RH  040%=      5-min Rain = 0
KPD1 162355Z 15011KT 28/13 A2997 RMK A01 T02780131  RH  040%=      5-min Rain = 0
KPD1 162356Z 16012KT 28/13 A2997 RMK A01 T02800131  RH  040%=      5-min Rain = 0
KPD1 162357Z 15009G14KT 28/13 A2997 RMK A01 T02800131  RH  040%=      5-min Rain = 0
KPD1 162358Z 14012G18KT 28/13 A2997 RMK A01 T02800131  RH  040%=      5-min Rain = 0
KPD1 162359Z 15012KT 28/13 A2997 RMK A01 T02790131  RH  040%=      5-min Rain = 0
KPD1 170000Z 15010KT 28/13 A2997 RMK A01 T02780131  RH  040%=      5-min Rain = 0
KPD1 170001Z 15010KT 28/13 A2997 RMK A01 T02780131  RH  040%=      5-min Rain = 0
KPD1 170002Z 15009KT 28/13 A2997 RMK A01 T02770130  RH  040%=      5-min Rain = 0
KPD1 170003Z 15010KT 28/13 A2997 RMK A01 T02760130  RH  040%=      5-min Rain = 0
KPD1 170004Z 14007KT 28/13 A2997 RMK A01 T02760130  RH  041%=      5-min Rain = 0
KPD1 170005Z 14010KT 28/13 A2997 RMK A01 T02760130  RH  041%=      5-min Rain = 0
KPD1 170006Z 14009KT 28/13 A2997 RMK A01 T02760130  RH  041%=      5-min Rain = 0
KPD1 170007Z 15009KT 28/13 A2997 RMK A01 T02760130  RH  041%=      5-min Rain = 0
KPD1 170008Z 15009KT 28/13 A2997 RMK A01 T02770130  RH  040%=      5-min Rain = 0
KPD1 170009Z 15010KT 28/13 A2997 RMK A01 T02790131  RH  040%=      5-min Rain = 0
KPD1 170010Z 16011G16KT 28/13 A2997 RMK A01 T02810131  RH  040%=      5-min Rain = 0
KPD1 170011Z 15011KT 28/13 A2997 RMK A01 T02810130  RH  039%=      5-min Rain = 0
KPD1 170012Z 16011G16KT 28/13 A2997 RMK A01 T02810130  RH  039%=      5-min Rain = 0
KPD1 170013Z 15014KT 28/13 A2997 RMK A01 T02810130  RH  039%=      5-min Rain = 0
KPD1 170014Z 16012KT 28/13 A2997 RMK A01 T02810129  RH  039%=      5-min Rain = 0
KPD1 170015Z 16011KT 28/13 A2997 RMK A01 T02820129  RH  039%=      5-min Rain = 0
KPD1 170016Z 15012KT 28/13 A2997 RMK A01 T02820129  RH  039%=      5-min Rain = 0
KPD1 170017Z 16013KT 28/13 A2997 RMK A01 T02830129  RH  039%=      5-min Rain = 0
KPD1 170018Z 16009KT 28/13 A2997 RMK A01 T02830129  RH  039%=      5-min Rain = 0
KPD1 170019Z 15010G18KT 28/13 A2997 RMK A01 T02820129  RH  039%=      5-min Rain = 0
KPD1 170020Z 15012KT 28/13 A2997 RMK A01 T02820129  RH  039%=      5-min Rain = 0
KPD1 170021Z 16009KT 28/13 A2997 RMK A01 T02820129  RH  039%=      5-min Rain = 0
KPD1 170022Z 17010KT 28/13 A2996 RMK A01 T02820128  RH  039%=      5-min Rain = 0
KPD1 170023Z 17007KT 28/13 A2996 RMK A01 T02820128  RH  039%=      5-min Rain = 0
KPD1 170024Z 16006KT 28/13 A2996 RMK A01 T02820129  RH  039%=      5-min Rain = 0
KPD1 170025Z 15008KT 28/13 A2996 RMK A01 T02830129  RH  039%=      5-min Rain = 0
KPD1 170026Z 15010KT 28/13 A2996 RMK A01 T02840129  RH  038%=      5-min Rain = 0
KPD1 170027Z 15008KT 28/13 A2996 RMK A01 T02840129  RH  038%=      5-min Rain = 0
KPD1 170028Z 14009KT 28/13 A2996 RMK A01 T02830128  RH  038%=      5-min Rain = 0
KPD1 170029Z 16011G18KT 28/13 A2996 RMK A01 T02840128  RH  038%=      5-min Rain = 0
KPD1 170030Z 17012KT 28/13 A2997 RMK A01 T02830128  RH  038%=      5-min Rain = 0
KPD1 170031Z 17008KT 28/13 A2996 RMK A01 T02820128  RH  038%=      5-min Rain = 0
KPD1 170032Z 17010KT 28/13 A2997 RMK A01 T02820128  RH  039%=      5-min Rain = 0
KPD1 170033Z 15007KT 28/13 A2997 RMK A01 T02820128  RH  039%=      5-min Rain = 0
KPD1 170034Z 15010KT 28/13 A2997 RMK A01 T02820128  RH  039%=      5-min Rain = 0
KPD1 170035Z 15008G13KT 28/13 A2997 RMK A01 T02820127  RH  039%=      5-min Rain = 0
KPD1 170036Z 15010G15KT 28/13 A2997 RMK A01 T02820127  RH  038%=      5-min Rain = 0
KPD1 170037Z 14011KT 28/13 A2997 RMK A01 T02810126  RH  038%=      5-min Rain = 0
KPD1 170038Z 16012KT 28/13 A2997 RMK A01 T02810127  RH  039%=      5-min Rain = 0
KPD1 170039Z 15009G14KT 28/13 A2997 RMK A01 T02790126  RH  039%=      5-min Rain = 0
KPD1 170040Z 15010KT 28/13 A2997 RMK A01 T02780126  RH  039%=      5-min Rain = 0
KPD1 170041Z 16010KT 28/13 A2997 RMK A01 T02770125  RH  039%=      5-min Rain = 0
KPD1 170042Z 15008KT 28/13 A2997 RMK A01 T02770125  RH  039%=      5-min Rain = 0
KPD1 170043Z 16009KT 28/13 A2997 RMK A01 T02770125  RH  039%=      5-min Rain = 0
KPD1 170044Z 17007KT 28/13 A2997 RMK A01 T02770125  RH  039%=      5-min Rain = 0
KPD1 170045Z 17007KT 28/13 A2997 RMK A01 T02770125  RH  039%=      5-min Rain = 0
KPD1 170046Z 18007KT 28/13 A2997 RMK A01 T02770125  RH  039%=      5-min Rain = 0
KPD1 170047Z 16008KT 28/13 A2997 RMK A01 T02770125  RH  039%=      5-min Rain = 0
KPD1 170048Z 15008KT 28/12 A2997 RMK A01 T02770124  RH  039%=      5-min Rain = 0
KPD1 170049Z 16010KT 28/12 A2997 RMK A01 T02770124  RH  039%=      5-min Rain = 0
KPD1 170050Z 15008KT 28/12 A2997 RMK A01 T02770124  RH  039%=      5-min Rain = 0
KPD1 170051Z 16009KT 28/12 A2997 RMK A01 T02770124  RH  039%=      5-min Rain = 0
KPD1 170052Z 14010G15KT 28/12 A2997 RMK A01 T02770124  RH  039%=      5-min Rain = 0
KPD1 170053Z 16010KT 28/12 A2997 RMK A01 T02770124  RH  039%=      5-min Rain = 0
KPD1 170054Z 15009KT 28/12 A2997 RMK A01 T02760123  RH  039%=      5-min Rain = 0
KPD1 170055Z 15009KT 28/12 A2997 RMK A01 T02760123  RH  039%=      5-min Rain = 0
KPD1 170056Z 16011KT 28/12 A2997 RMK A01 T02760123  RH  039%=      5-min Rain = 0
KPD1 170057Z 15009KT 28/12 A2997 RMK A01 T02750123  RH  039%=      5-min Rain = 0
KPD1 170058Z 15010KT 28/12 A2997 RMK A01 T02750122  RH  039%=      5-min Rain = 0
KPD1 170059Z 15010KT 28/12 A2997 RMK A01 T02750122  RH  039%=      5-min Rain = 0
KPD1 170100Z 15009KT 27/12 A2997 RMK A01 T02740122  RH  039%=      5-min Rain = 0
KPD1 170101Z 16010KT 27/12 A2997 RMK A01 T02740122  RH  039%=      5-min Rain = 0
KPD1 170102Z 16009KT 27/12 A2997 RMK A01 T02740122  RH  039%=      5-min Rain = 0
KPD1 170103Z 16008KT 27/12 A2997 RMK A01 T02740122  RH  039%=      5-min Rain = 0
KPD1 170104Z 16010KT 27/12 A2997 RMK A01 T02740122  RH  039%=      5-min Rain = 0
KPD1 170105Z 16010KT 27/12 A2997 RMK A01 T02730121  RH  039%=      5-min Rain = 0
KPD1 170106Z 16011KT 27/12 A2997 RMK A01 T02730121  RH  039%=      5-min Rain = 0
KPD1 170107Z 16010KT 27/12 A2997 RMK A01 T02730120  RH  039%=      5-min Rain = 0
KPD1 170108Z 17008KT 27/12 A2997 RMK A01 T02730121  RH  039%=      5-min Rain = 0
KPD1 170109Z 16008KT 27/12 A2997 RMK A01 T02720120  RH  039%=      5-min Rain = 0
KPD1 170110Z 16008KT 27/12 A2997 RMK A01 T02720120  RH  039%=      5-min Rain = 0
KPD1 170111Z 16009KT 27/12 A2997 RMK A01 T02720120  RH  039%=      5-min Rain = 0
KPD1 170112Z 16007KT 27/12 A2997 RMK A01 T02710120  RH  039%=      5-min Rain = 0
KPD1 170113Z 16008KT 27/12 A2997 RMK A01 T02710120  RH  039%=      5-min Rain = 0
KPD1 170114Z 16008KT 27/12 A2997 RMK A01 T02710120  RH  039%=      5-min Rain = 0
KPD1 170115Z 15011KT 27/12 A2997 RMK A01 T02700120  RH  039%=      5-min Rain = 0
KPD1 170116Z 15010KT 27/12 A2997 RMK A01 T02700120  RH  039%=      5-min Rain = 0
KPD1 170117Z 15011KT 27/12 A2997 RMK A01 T02700120  RH  039%=      5-min Rain = 0
KPD1 170118Z 17010KT 27/12 A2997 RMK A01 T02700120  RH  039%=      5-min Rain = 0
KPD1 170119Z 16011G16KT 27/12 A2997 RMK A01 T02690120  RH  039%=      5-min Rain = 0
KPD1 170120Z 16011KT 27/12 A2997 RMK A01 T02690120  RH  039%=      5-min Rain = 0
KPD1 170121Z 16009KT 27/12 A2997 RMK A01 T02690119  RH  039%=      5-min Rain = 0
KPD1 170122Z 15013KT 27/12 A2997 RMK A01 T02690120  RH  040%=      5-min Rain = 0
KPD1 170123Z 16012KT 27/12 A2997 RMK A01 T02680120  RH  040%=      5-min Rain = 0
KPD1 170124Z 16012KT 27/12 A2997 RMK A01 T02680120  RH  040%=      5-min Rain = 0
KPD1 170125Z 16012KT 27/12 A2997 RMK A01 T02680120  RH  040%=      5-min Rain = 0
KPD1 170126Z 16010KT 27/12 A2997 RMK A01 T02670119  RH  040%=      5-min Rain = 0
KPD1 170127Z 15009KT 27/12 A2997 RMK A01 T02670120  RH  040%=      5-min Rain = 0
KPD1 170128Z 16010KT 27/12 A2997 RMK A01 T02660119  RH  040%=      5-min Rain = 0
KPD1 170129Z 16010KT 27/12 A2997 RMK A01 T02660119  RH  040%=      5-min Rain = 0
KPD1 170130Z 16010KT 27/12 A2997 RMK A01 T02660119  RH  040%=      5-min Rain = 0
KPD1 170131Z 16009KT 27/12 A2997 RMK A01 T02650119  RH  040%=      5-min Rain = 0
KPD1 170132Z 16009KT 27/12 A2997 RMK A01 T02650119  RH  040%=      5-min Rain = 0
KPD1 170133Z 16010G15KT 26/12 A2997 RMK A01 T02640118  RH  040%=      5-min Rain = 0
KPD1 170134Z 16010KT 26/12 A2997 RMK A01 T02640119  RH  040%=      5-min Rain = 0
KPD1 170135Z 15012KT 26/12 A2997 RMK A01 T02640119  RH  040%=      5-min Rain = 0
KPD1 170136Z 16011KT 26/12 A2997 RMK A01 T02640119  RH  040%=      5-min Rain = 0
KPD1 170137Z 16008KT 26/12 A2997 RMK A01 T02640119  RH  040%=      5-min Rain = 0
KPD1 170138Z 16011KT 26/12 A2997 RMK A01 T02640118  RH  040%=      5-min Rain = 0
KPD1 170139Z 15008KT 26/12 A2997 RMK A01 T02630118  RH  040%=      5-min Rain = 0
KPD1 170140Z 15009KT 26/12 A2997 RMK A01 T02630118  RH  041%=      5-min Rain = 0
KPD1 170141Z 16011KT 26/12 A2997 RMK A01 T02620118  RH  041%=      5-min Rain = 0
KPD1 170142Z 15010KT 26/12 A2997 RMK A01 T02620118  RH  041%=      5-min Rain = 0
KPD1 170143Z 16009KT 26/12 A2997 RMK A01 T02610118  RH  041%=      5-min Rain = 0
KPD1 170144Z 17009KT 26/12 A2997 RMK A01 T02620118  RH  041%=      5-min Rain = 0
KPD1 170145Z 16007KT 26/12 A2997 RMK A01 T02620118  RH  041%=      5-min Rain = 0
KPD1 170146Z 15012KT 26/12 A2997 RMK A01 T02610117  RH  041%=      5-min Rain = 0
KPD1 170147Z 15010KT 26/12 A2998 RMK A01 T02610117  RH  041%=      5-min Rain = 0
KPD1 170148Z 16010KT 26/12 A2998 RMK A01 T02610117  RH  041%=      5-min Rain = 0
KPD1 170149Z 15011KT 26/12 A2998 RMK A01 T02600117  RH  041%=      5-min Rain = 0
KPD1 170150Z 16009KT 26/12 A2998 RMK A01 T02600118  RH  041%=      5-min Rain = 0
KPD1 170151Z 15006KT 26/12 A2998 RMK A01 T02590117  RH  041%=      5-min Rain = 0
KPD1 170152Z 16009KT 26/12 A2998 RMK A01 T02590117  RH  041%=      5-min Rain = 0
KPD1 170153Z 16010KT 26/12 A2998 RMK A01 T02580117  RH  041%=      5-min Rain = 0
KPD1 170154Z 15010KT 26/12 A2998 RMK A01 T02590117  RH  041%=      5-min Rain = 0
KPD1 170155Z 15008G13KT 26/12 A2998 RMK A01 T02580117  RH  041%=      5-min Rain = 0
KPD1 170156Z 15011KT 26/12 A2998 RMK A01 T02580117  RH  041%=      5-min Rain = 0
KPD1 170157Z 15009KT 26/12 A2998 RMK A01 T02580116  RH  041%=      5-min Rain = 0
KPD1 170158Z 16010KT 26/12 A2998 RMK A01 T02580116  RH  041%=      5-min Rain = 0
KPD1 170159Z 16010KT 26/12 A2998 RMK A01 T02580116  RH  041%=      5-min Rain = 0
KPD1 170200Z 16012KT 26/12 A2998 RMK A01 T02580116  RH  041%=      5-min Rain = 0
KPD1 170201Z 16010KT 26/12 A2998 RMK A01 T02570116  RH  041%=      5-min Rain = 0
KPD1 170202Z 16008KT 26/12 A2998 RMK A01 T02570116  RH  041%=      5-min Rain = 0
KPD1 170203Z 16010G15KT 26/12 A2998 RMK A01 T02570115  RH  041%=      5-min Rain = 0
KPD1 170204Z 16009KT 26/12 A2998 RMK A01 T02570115  RH  041%=      5-min Rain = 0
KPD1 170205Z 16008KT 26/12 A2998 RMK A01 T02570115  RH  041%=      5-min Rain = 0
KPD1 170206Z 16011KT 26/12 A2998 RMK A01 T02560115  RH  041%=      5-min Rain = 0
KPD1 170207Z 16010G15KT 26/12 A2998 RMK A01 T02560115  RH  041%=      5-min Rain = 0
KPD1 170208Z 16009KT 26/12 A2998 RMK A01 T02560115  RH  041%=      5-min Rain = 0
KPD1 170209Z 16009KT 26/12 A2998 RMK A01 T02550115  RH  041%=      5-min Rain = 0
KPD1 170210Z 15008KT 26/11 A2998 RMK A01 T02550114  RH  041%=      5-min Rain = 0
KPD1 170211Z 16009KT 26/11 A2998 RMK A01 T02550114  RH  041%=      5-min Rain = 0
KPD1 170212Z 15010KT 25/11 A2998 RMK A01 T02540114  RH  041%=      5-min Rain = 0
KPD1 170213Z 16008KT 25/11 A2998 RMK A01 T02540114  RH  041%=      5-min Rain = 0
KPD1 170214Z 16007KT 25/11 A2998 RMK A01 T02540114  RH  041%=      5-min Rain = 0
KPD1 170215Z 15008KT 25/11 A2998 RMK A01 T02540114  RH  041%=      5-min Rain = 0
KPD1 170216Z 16009KT 25/11 A2998 RMK A01 T02530113  RH  041%=      5-min Rain = 0
KPD1 170217Z 16009KT 25/11 A2998 RMK A01 T02530113  RH  042%=      5-min Rain = 0
KPD1 170218Z 16009KT 25/11 A2998 RMK A01 T02530113  RH  042%=      5-min Rain = 0
KPD1 170219Z 15008KT 25/11 A2998 RMK A01 T02530113  RH  041%=      5-min Rain = 0
KPD1 170220Z 15008KT 25/11 A2998 RMK A01 T02530113  RH  041%=      5-min Rain = 0
KPD1 170221Z 15007KT 25/11 A2998 RMK A01 T02530113  RH  041%=      5-min Rain = 0
KPD1 170222Z 16006G11KT 25/11 A2998 RMK A01 T02520113  RH  042%=      5-min Rain = 0
KPD1 170223Z 16008KT 25/11 A2998 RMK A01 T02510112  RH  042%=      5-min Rain = 0
KPD1 170224Z 16007KT 25/11 A2998 RMK A01 T02510112  RH  042%=      5-min Rain = 0
KPD1 170225Z 15008KT 25/11 A2998 RMK A01 T02510112  RH  042%=      5-min Rain = 0
KPD1 170226Z 15008KT 25/11 A2998 RMK A01 T02510112  RH  042%=      5-min Rain = 0
KPD1 170227Z 15009KT 25/11 A2998 RMK A01 T02500112  RH  042%=      5-min Rain = 0
KPD1 170228Z 15010KT 25/11 A2998 RMK A01 T02500111  RH  042%=      5-min Rain = 0
KPD1 170229Z 16011KT 25/11 A2998 RMK A01 T02500111  RH  042%=      5-min Rain = 0
KPD1 170230Z 16010KT 25/11 A2998 RMK A01 T02500111  RH  042%=      5-min Rain = 0
KPD1 170231Z 15009KT 25/11 A2998 RMK A01 T02510111  RH  041%=      5-min Rain = 0
KPD1 170232Z 15011KT 25/11 A2998 RMK A01 T02510111  RH  041%=      5-min Rain = 0
KPD1 170233Z 16008KT 25/11 A2998 RMK A01 T02510111  RH  041%=      5-min Rain = 0
KPD1 170234Z 15010KT 25/11 A2998 RMK A01 T02510110  RH  041%=      5-min Rain = 0
KPD1 170235Z 15009KT 25/11 A2998 RMK A01 T02510110  RH  041%=      5-min Rain = 0
KPD1 170236Z 15010KT 25/11 A2998 RMK A01 T02510110  RH  041%=      5-min Rain = 0
KPD1 170237Z 15007G12KT 25/11 A2998 RMK A01 T02500110  RH  041%=      5-min Rain = 0
KPD1 170238Z 16010KT 25/11 A2998 RMK A01 T02500110  RH  041%=      5-min Rain = 0
KPD1 170239Z 16010KT 25/11 A2998 RMK A01 T02490109  RH  041%=      5-min Rain = 0
KPD1 170240Z 15009KT 25/11 A2998 RMK A01 T02490110  RH  041%=      5-min Rain = 0
KPD1 170241Z 15008KT 25/11 A2998 RMK A01 T02490109  RH  041%=      5-min Rain = 0
KPD1 170242Z 16008KT 25/11 A2998 RMK A01 T02490110  RH  042%=      5-min Rain = 0
KPD1 170243Z 15009KT 25/11 A2998 RMK A01 T02480109  RH  042%=      5-min Rain = 0
KPD1 170244Z 16008KT 25/11 A2998 RMK A01 T02470109  RH  042%=      5-min Rain = 0
KPD1 170245Z 15008KT 25/11 A2998 RMK A01 T02470109  RH  042%=      5-min Rain = 0
KPD1 170246Z 15009KT 25/11 A2999 RMK A01 T02470109  RH  042%=      5-min Rain = 0
KPD1 170247Z 15008KT 25/11 A2999 RMK A01 T02470109  RH  042%=      5-min Rain = 0
KPD1 170248Z 16010KT 25/11 A2999 RMK A01 T02460109  RH  042%=      5-min Rain = 0
KPD1 170249Z 15008KT 25/11 A2999 RMK A01 T02460109  RH  042%=      5-min Rain = 0
KPD1 170250Z 16007KT 25/11 A2999 RMK A01 T02460108  RH  042%=      5-min Rain = 0
KPD1 170251Z 16009G15KT 25/11 A2999 RMK A01 T02460108  RH  042%=      5-min Rain = 0
KPD1 170252Z 15009KT 25/11 A2999 RMK A01 T02450108  RH  042%=      5-min Rain = 0
KPD1 170253Z 15009KT 25/11 A2999 RMK A01 T02450108  RH  042%=      5-min Rain = 0
KPD1 170254Z 16009KT 25/11 A2999 RMK A01 T02450108  RH  042%=      5-min Rain = 0
KPD1 170255Z 15006KT 24/11 A2999 RMK A01 T02440108  RH  042%=      5-min Rain = 0
KPD1 170256Z 16009KT 24/11 A2999 RMK A01 T02440108  RH  042%=      5-min Rain = 0
KPD1 170257Z 15009KT 24/11 A2999 RMK A01 T02440108  RH  042%=      5-min Rain = 0
KPD1 170258Z 16009KT 24/11 A2999 RMK A01 T02430108  RH  042%=      5-min Rain = 0
KPD1 170259Z 15008KT 24/11 A2999 RMK A01 T02430108  RH  042%=      5-min Rain = 0
KPD1 170300Z 15009KT 24/11 A2999 RMK A01 T02430107  RH  042%=      5-min Rain = 0
KPD1 170301Z 16007KT 24/11 A2999 RMK A01 T02430107  RH  042%=      5-min Rain = 0
KPD1 170302Z 15008KT 24/11 A2999 RMK A01 T02440108  RH  042%=      5-min Rain = 0
KPD1 170303Z 16009KT 24/11 A2999 RMK A01 T02430108  RH  042%=      5-min Rain = 0
KPD1 170304Z 15009KT 24/11 A2999 RMK A01 T02430108  RH  042%=      5-min Rain = 0
KPD1 170305Z 16007KT 24/11 A2999 RMK A01 T02430108  RH  042%=      5-min Rain = 0
KPD1 170306Z 16008KT 24/11 A2999 RMK A01 T02430107  RH  042%=      5-min Rain = 0
KPD1 170307Z 16007G12KT 24/11 A2999 RMK A01 T02420107  RH  043%=      5-min Rain = 0
KPD1 170308Z 16006KT 24/11 A2999 RMK A01 T02430108  RH  043%=      5-min Rain = 0
KPD1 170309Z 15007KT 24/11 A2999 RMK A01 T02420107  RH  043%=      5-min Rain = 0
KPD1 170310Z 15007KT 24/11 A2999 RMK A01 T02410107  RH  043%=      5-min Rain = 0
KPD1 170311Z 15007KT 24/11 A2999 RMK A01 T02410107  RH  043%=      5-min Rain = 0
KPD1 170312Z 15006KT 24/11 A2999 RMK A01 T02410107  RH  043%=      5-min Rain = 0
KPD1 170313Z 15009KT 24/11 A2999 RMK A01 T02410107  RH  043%=      5-min Rain = 0
KPD1 170314Z 15006KT 24/11 A2999 RMK A01 T02410107  RH  043%=      5-min Rain = 0
KPD1 170315Z 15009KT 24/11 A2999 RMK A01 T02400107  RH  043%=      5-min Rain = 0
KPD1 170316Z 14008KT 24/11 A2999 RMK A01 T02400107  RH  043%=      5-min Rain = 0
KPD1 170317Z 14011G16KT 24/11 A30 RMK A01 T02400107  RH  043%=      5-min Rain = 0
KPD1 170318Z 14008KT 24/11 A30 RMK A01 T02410108  RH  043%=      5-min Rain = 0
KPD1 170319Z 14005KT 24/11 A30 RMK A01 T02420108  RH  043%=      5-min Rain = 0
KPD1 170320Z 15005KT 24/11 A30 RMK A01 T02410108  RH  043%=      5-min Rain = 0
KPD1 170321Z 15005KT 24/11 A30 RMK A01 T02410107  RH  043%=      5-min Rain = 0
KPD1 170322Z 14006KT 24/11 A30 RMK A01 T02400107  RH  043%=      5-min Rain = 0
KPD1 170323Z 14008KT 24/11 A30 RMK A01 T02390108  RH  044%=      5-min Rain = 0
KPD1 170324Z 15007KT 24/11 A30 RMK A01 T02390108  RH  044%=      5-min Rain = 0
KPD1 170325Z 15007KT 24/11 A30 RMK A01 T02390109  RH  044%=      5-min Rain = 0
KPD1 170326Z 14010KT 24/11 A30 RMK A01 T02390111  RH  045%=      5-min Rain = 0
KPD1 170327Z 14010KT 24/11 A30 RMK A01 T02380113  RH  045%=      5-min Rain = 0
KPD1 170328Z 15009G15KT 24/11 A30 RMK A01 T02380114  RH  046%=      5-min Rain = 0
KPD1 170329Z 15012KT 24/12 A30 RMK A01 T02380116  RH  046%=      5-min Rain = 0
KPD1 170330Z 14012G17KT 24/12 A30 RMK A01 T02380118  RH  047%=      5-min Rain = 0
KPD1 170331Z 14010G16KT 24/12 A30 RMK A01 T02380118  RH  047%=      5-min Rain = 0
KPD1 170332Z 14010KT 24/12 A30 RMK A01 T02380119  RH  047%=      5-min Rain = 0
KPD1 170333Z 15011G16KT 24/12 A30 RMK A01 T02370119  RH  047%=      5-min Rain = 0
KPD1 170334Z 14013KT 24/12 A30 RMK A01 T02370120  RH  048%=      5-min Rain = 0
KPD1 170335Z 14009G14KT 24/12 A30 RMK A01 T02370120  RH  048%=      5-min Rain = 0
KPD1 170336Z 15010KT 24/12 A3001 RMK A01 T02370121  RH  048%=      5-min Rain = 0
KPD1 170337Z 14009KT 24/12 A3001 RMK A01 T02360121  RH  049%=      5-min Rain = 0
KPD1 170338Z 14010KT 24/12 A3001 RMK A01 T02350122  RH  049%=      5-min Rain = 0
KPD1 170339Z 14012G18KT 23/12 A3001 RMK A01 T02340123  RH  050%=      5-min Rain = 0
KPD1 170340Z 15010G16KT 23/12 A3001 RMK A01 T02330124  RH  050%=      5-min Rain = 0
KPD1 170341Z 13011G16KT 23/12 A3001 RMK A01 T02320124  RH  051%=      5-min Rain = 0
KPD1 170342Z 14012KT 23/13 A3001 RMK A01 T02320125  RH  051%=      5-min Rain = 0
KPD1 170343Z 14012KT 23/13 A3001 RMK A01 T02310125  RH  051%=      5-min Rain = 0
KPD1 170344Z 15013G19KT 23/13 A3001 RMK A01 T02310126  RH  051%=      5-min Rain = 0
KPD1 170345Z 14015G20KT 23/13 A3001 RMK A01 T02300126  RH  052%=      5-min Rain = 0
KPD1 170346Z 15015G20KT 23/13 A3001 RMK A01 T02300126  RH  052%=      5-min Rain = 0
KPD1 170347Z 14012KT 23/13 A3001 RMK A01 T02300126  RH  052%=      5-min Rain = 0
KPD1 170348Z 14012KT 23/13 A3001 RMK A01 T02300127  RH  052%=      5-min Rain = 0
KPD1 170349Z 14012KT 23/13 A3001 RMK A01 T02290126  RH  052%=      5-min Rain = 0
KPD1 170350Z 15011KT 23/13 A3002 RMK A01 T02290126  RH  052%=      5-min Rain = 0
KPD1 170351Z 14012KT 23/13 A3002 RMK A01 T02280126  RH  052%=      5-min Rain = 0
KPD1 170352Z 15009KT 23/13 A3002 RMK A01 T02280126  RH  053%=      5-min Rain = 0
KPD1 170353Z 14010KT 23/13 A3002 RMK A01 T02270126  RH  053%=      5-min Rain = 0
KPD1 170354Z 14012KT 23/13 A3002 RMK A01 T02270126  RH  053%=      5-min Rain = 0
KPD1 170355Z 14012KT 23/13 A3002 RMK A01 T02260126  RH  053%=      5-min Rain = 0
KPD1 170356Z 14011KT 23/13 A3002 RMK A01 T02260126  RH  053%=      5-min Rain = 0
KPD1 170357Z 15011KT 23/13 A3002 RMK A01 T02260126  RH  053%=      5-min Rain = 0
KPD1 170358Z 15012KT 23/13 A3002 RMK A01 T02260127  RH  054%=      5-min Rain = 0
KPD1 170359Z 15008KT 23/13 A3002 RMK A01 T02250127  RH  054%=      5-min Rain = 0
KPD1 170400Z 14010KT 23/13 A3002 RMK A01 T02250127  RH  054%=      5-min Rain = 0
KPD1 170401Z 14011KT 23/13 A3002 RMK A01 T02250127  RH  054%=      5-min Rain = 0
KPD1 170402Z 15010KT 22/13 A3002 RMK A01 T02240127  RH  054%=      5-min Rain = 0
KPD1 170403Z 15010KT 22/13 A3002 RMK A01 T02240127  RH  054%=      5-min Rain = 0
KPD1 170404Z 14009KT 22/13 A3002 RMK A01 T02230127  RH  054%=      5-min Rain = 0
KPD1 170405Z 14009G14KT 22/13 A3002 RMK A01 T02230127  RH  055%=      5-min Rain = 0
KPD1 170406Z 15011KT 22/13 A3002 RMK A01 T02220127  RH  055%=      5-min Rain = 0
KPD1 170407Z 14013KT 22/13 A3002 RMK A01 T02220127  RH  055%=      5-min Rain = 0
KPD1 170408Z 15010KT 22/13 A3002 RMK A01 T02220127  RH  055%=      5-min Rain = 0
KPD1 170409Z 15012G17KT 22/13 A3002 RMK A01 T02220127  RH  055%=      5-min Rain = 0
KPD1 170410Z 15013KT 22/13 A3002 RMK A01 T02220127  RH  055%=      5-min Rain = 0
KPD1 170411Z 15011KT 22/13 A3002 RMK A01 T02220127  RH  055%=      5-min Rain = 0
KPD1 170412Z 15011KT 22/13 A3002 RMK A01 T02220127  RH  055%=      5-min Rain = 0
KPD1 170413Z 15012KT 22/13 A3002 RMK A01 T02220126  RH  055%=      5-min Rain = 0
KPD1 170414Z 15009G16KT 22/13 A3002 RMK A01 T02220126  RH  055%=      5-min Rain = 0
KPD1 170415Z 15011KT 22/13 A3002 RMK A01 T02220126  RH  055%=      5-min Rain = 0
KPD1 170416Z 15012KT 22/13 A3002 RMK A01 T02210126  RH  055%=      5-min Rain = 0
KPD1 170417Z 15010KT 22/13 A3002 RMK A01 T02210126  RH  055%=      5-min Rain = 0
KPD1 170418Z 15013KT 22/13 A3002 RMK A01 T02210126  RH  055%=      5-min Rain = 0
KPD1 170419Z 15012G17KT 22/13 A3001 RMK A01 T02210126  RH  055%=      5-min Rain = 0
KPD1 170420Z 15012KT 22/13 A3002 RMK A01 T02210126  RH  055%=      5-min Rain = 0
KPD1 170421Z 16010G15KT 22/13 A3001 RMK A01 T02210126  RH  055%=      5-min Rain = 0
KPD1 170422Z 15012KT 22/13 A3001 RMK A01 T02210126  RH  055%=      5-min Rain = 0
KPD1 170423Z 15013KT 22/13 A3002 RMK A01 T02210126  RH  055%=      5-min Rain = 0
KPD1 170424Z 16011KT 22/13 A3002 RMK A01 T02200125  RH  055%=      5-min Rain = 0
KPD1 170425Z 16009G14KT 22/13 A3002 RMK A01 T02210126  RH  055%=      5-min Rain = 0
KPD1 170426Z 15009KT 22/13 A3002 RMK A01 T02200125  RH  055%=      5-min Rain = 0
KPD1 170427Z 16012KT 22/13 A3002 RMK A01 T02200125  RH  055%=      5-min Rain = 0
KPD1 170428Z 15011KT 22/13 A3002 RMK A01 T02200126  RH  055%=      5-min Rain = 0
KPD1 170429Z 15011KT 22/13 A3002 RMK A01 T02200125  RH  055%=      5-min Rain = 0
KPD1 170430Z 16008KT 22/13 A3002 RMK A01 T02200126  RH  055%=      5-min Rain = 0
KPD1 170431Z 16010G15KT 22/13 A3002 RMK A01 T02190125  RH  055%=      5-min Rain = 0
KPD1 170432Z 16008KT 22/13 A3002 RMK A01 T02180125  RH  055%=      5-min Rain = 0
KPD1 170433Z 16010G15KT 22/13 A3002 RMK A01 T02180125  RH  056%=      5-min Rain = 0
KPD1 170434Z 15011KT 22/13 A3002 RMK A01 T02180125  RH  056%=      5-min Rain = 0
KPD1 170435Z 16010KT 22/13 A3002 RMK A01 T02180125  RH  056%=      5-min Rain = 0
KPD1 170436Z 16009KT 22/13 A3002 RMK A01 T02170125  RH  056%=      5-min Rain = 0
KPD1 170437Z 15011G17KT 22/13 A3002 RMK A01 T02170125  RH  056%=      5-min Rain = 0
KPD1 170438Z 15010KT 22/13 A3002 RMK A01 T02170125  RH  056%=      5-min Rain = 0
KPD1 170439Z 16008KT 22/13 A3002 RMK A01 T02170125  RH  056%=      5-min Rain = 0
KPD1 170440Z 16012KT 22/13 A3001 RMK A01 T02170125  RH  056%=      5-min Rain = 0
KPD1 170441Z 16011G17KT 22/13 A3001 RMK A01 T02170125  RH  055%=      5-min Rain = 0
KPD1 170442Z 16012KT 22/13 A3002 RMK A01 T02180125  RH  055%=      5-min Rain = 0
KPD1 170443Z 16009KT 22/12 A3001 RMK A01 T02180124  RH  055%=      5-min Rain = 0
KPD1 170444Z 16011G16KT 22/12 A3001 RMK A01 T02180124  RH  055%=      5-min Rain = 0
KPD1 170445Z 16012KT 22/12 A3001 RMK A01 T02180124  RH  055%=      5-min Rain = 0
KPD1 170446Z 16013KT 22/12 A3002 RMK A01 T02180124  RH  055%=      5-min Rain = 0
KPD1 170447Z 15013KT 22/12 A3002 RMK A01 T02180124  RH  055%=      5-min Rain = 0
KPD1 170448Z 16010KT 22/12 A3002 RMK A01 T02180124  RH  055%=      5-min Rain = 0
KPD1 170449Z 16012KT 22/12 A3002 RMK A01 T02180124  RH  055%=      5-min Rain = 0
KPD1 170450Z 16014KT 22/12 A3002 RMK A01 T02180124  RH  055%=      5-min Rain = 0
KPD1 170451Z 16014G19KT 22/12 A3002 RMK A01 T02180124  RH  055%=      5-min Rain = 0
KPD1 170452Z 16015G20KT 22/12 A3002 RMK A01 T02180124  RH  055%=      5-min Rain = 0
KPD1 170453Z 16011KT 22/12 A3002 RMK A01 T02180124  RH  055%=      5-min Rain = 0
KPD1 170454Z 16010G15KT 22/12 A3002 RMK A01 T02180124  RH  055%=      5-min Rain = 0
KPD1 170455Z 16013KT 22/12 A3002 RMK A01 T02180124  RH  055%=      5-min Rain = 0
KPD1 170456Z 16011KT 22/12 A3001 RMK A01 T02180124  RH  055%=      5-min Rain = 0
KPD1 170457Z 16011KT 22/12 A3001 RMK A01 T02180124  RH  055%=      5-min Rain = 0
KPD1 170458Z 17011KT 22/12 A3001 RMK A01 T02170124  RH  055%=      5-min Rain = 0
KPD1 170459Z 16012G17KT 22/12 A3001 RMK A01 T02170124  RH  055%=      5-min Rain = 0

Page generated in 0.1052 seconds.